<?xml version="1.0" encoding="UTF-8" standalone="no" ?>
<gpx xmlns="http://www.topografix.com/GPX/1/1" xmlns:xsi="http://www.w3.org/2001/XMLSchema-instance" xsi:schemaLocation="http://www.topografix.com/GPX/1/1 http://www.topografix.com/GPX/1/1/gpx.xsd" version="1.1" creator="VisuGPX - https://www.visugpx.com">
  <metadata>
    <name>Les Monts de Ryes</name>
    <desc><![CDATA[[titre]Les Monts de Ryes[/titre]
Cette boucle de randonnée d’environ 8 kilomètres débute depuis le village normand de [b]Ryes[/b], dans le [i]Calvados[/i]. Le parcours, d’une durée d’environ 2h20, est très accessible grâce à un dénivelé positif modeste de seulement 58 mètres. Après une légère montée depuis le village jusqu’à l’altitude de 104 mètres, vous évoluez sur le plateau des [i]Monts de Ryes[/i], en profitant de beaux points de vue sur la campagne bocagère. La suite du chemin redescend tranquillement vers la vallée avant de revenir à [b]Ryes[/b] par un itinéraire champêtre. Facile et roulant, ce circuit permet une agréable promenade bucolique sans difficulté majeure.]]></desc>
  </metadata>
  <trk>
    <name><![CDATA[Les Monts de Ryes - boucle - course à pied depuis Ryes]]></name>
    <trkseg>
      <trkpt lat="49.31313" lon="-0.62491">
        <ele>64.79059</ele>
        <time>2026-05-16T08:43:39.010Z</time>
      </trkpt>
      <trkpt lat="49.31312" lon="-0.62506">
        <ele>64.79059</ele>
        <time>2026-05-16T08:43:52.798Z</time>
      </trkpt>
      <trkpt lat="49.3131" lon="-0.62521">
        <ele>64.79059</ele>
        <time>2026-05-16T08:44:02.832Z</time>
      </trkpt>
      <trkpt lat="49.31308" lon="-0.62535">
        <ele>64.79059</ele>
        <time>2026-05-16T08:44:11.801Z</time>
      </trkpt>
      <trkpt lat="49.31307" lon="-0.62549">
        <ele>64.79059</ele>
        <time>2026-05-16T08:44:20.799Z</time>
      </trkpt>
      <trkpt lat="49.31298" lon="-0.62556">
        <ele>64.79059</ele>
        <time>2026-05-16T08:44:34.792Z</time>
      </trkpt>
      <trkpt lat="49.31302" lon="-0.62568">
        <ele>64.79059</ele>
        <time>2026-05-16T08:45:16.795Z</time>
      </trkpt>
      <trkpt lat="49.31301" lon="-0.62582">
        <ele>64.79059</ele>
        <time>2026-05-16T08:45:27.795Z</time>
      </trkpt>
      <trkpt lat="49.31299" lon="-0.62597">
        <ele>64.79059</ele>
        <time>2026-05-16T08:45:37.796Z</time>
      </trkpt>
      <trkpt lat="49.31298" lon="-0.62612">
        <ele>64.79059</ele>
        <time>2026-05-16T08:45:49.815Z</time>
      </trkpt>
      <trkpt lat="49.31296" lon="-0.62626">
        <ele>64.856537</ele>
        <time>2026-05-16T08:45:59.868Z</time>
      </trkpt>
      <trkpt lat="49.31294" lon="-0.62639">
        <ele>64.974393</ele>
        <time>2026-05-16T08:46:09.793Z</time>
      </trkpt>
      <trkpt lat="49.31289" lon="-0.62651">
        <ele>65.096289</ele>
        <time>2026-05-16T08:46:18.800Z</time>
      </trkpt>
      <trkpt lat="49.31286" lon="-0.62665">
        <ele>65.216318</ele>
        <time>2026-05-16T08:46:27.796Z</time>
      </trkpt>
      <trkpt lat="49.31284" lon="-0.6268">
        <ele>65.345202</ele>
        <time>2026-05-16T08:46:36.799Z</time>
      </trkpt>
      <trkpt lat="49.31281" lon="-0.62694">
        <ele>65.470785</ele>
        <time>2026-05-16T08:46:46.793Z</time>
      </trkpt>
      <trkpt lat="49.31277" lon="-0.62707">
        <ele>65.592247</ele>
        <time>2026-05-16T08:46:56.807Z</time>
      </trkpt>
      <trkpt lat="49.31268" lon="-0.62724">
        <ele>65.77563</ele>
        <time>2026-05-16T08:47:24.796Z</time>
      </trkpt>
      <trkpt lat="49.31258" lon="-0.62742">
        <ele>65.978242</ele>
        <time>2026-05-16T08:48:08.793Z</time>
      </trkpt>
      <trkpt lat="49.3125" lon="-0.62749">
        <ele>66.096563</ele>
        <time>2026-05-16T08:48:24.804Z</time>
      </trkpt>
      <trkpt lat="49.31251" lon="-0.62763">
        <ele>66.217769</ele>
        <time>2026-05-16T08:48:36.804Z</time>
      </trkpt>
      <trkpt lat="49.3126" lon="-0.6276">
        <ele>66.334656</ele>
        <time>2026-05-16T08:48:49.807Z</time>
      </trkpt>
      <trkpt lat="49.31257" lon="-0.62774">
        <ele>66.456852</ele>
        <time>2026-05-16T08:49:44.795Z</time>
      </trkpt>
      <trkpt lat="49.31262" lon="-0.62785">
        <ele>66.574118</ele>
        <time>2026-05-16T08:49:57.813Z</time>
      </trkpt>
      <trkpt lat="49.31264" lon="-0.628">
        <ele>66.701129</ele>
        <time>2026-05-16T08:50:08.784Z</time>
      </trkpt>
      <trkpt lat="49.31264" lon="-0.62814">
        <ele>66.823989</ele>
        <time>2026-05-16T08:50:18.797Z</time>
      </trkpt>
      <trkpt lat="49.31264" lon="-0.62828">
        <ele>66.940901</ele>
        <time>2026-05-16T08:50:27.802Z</time>
      </trkpt>
      <trkpt lat="49.31261" lon="-0.62843">
        <ele>67.067387</ele>
        <time>2026-05-16T08:50:37.806Z</time>
      </trkpt>
      <trkpt lat="49.31257" lon="-0.62855">
        <ele>67.16543</ele>
        <time>2026-05-16T08:50:46.795Z</time>
      </trkpt>
      <trkpt lat="49.31252" lon="-0.62868">
        <ele>67.258149</ele>
        <time>2026-05-16T08:50:55.799Z</time>
      </trkpt>
      <trkpt lat="49.31247" lon="-0.62879">
        <ele>67.347754</ele>
        <time>2026-05-16T08:51:04.808Z</time>
      </trkpt>
      <trkpt lat="49.31243" lon="-0.62892">
        <ele>67.436274</ele>
        <time>2026-05-16T08:51:12.806Z</time>
      </trkpt>
      <trkpt lat="49.31239" lon="-0.62905">
        <ele>67.522788</ele>
        <time>2026-05-16T08:51:20.798Z</time>
      </trkpt>
      <trkpt lat="49.31231" lon="-0.62912">
        <ele>67.610431</ele>
        <time>2026-05-16T08:51:31.791Z</time>
      </trkpt>
      <trkpt lat="49.31222" lon="-0.62907">
        <ele>67.705377</ele>
        <time>2026-05-16T08:51:41.811Z</time>
      </trkpt>
      <trkpt lat="49.31213" lon="-0.629">
        <ele>67.801142</ele>
        <time>2026-05-16T08:51:51.797Z</time>
      </trkpt>
      <trkpt lat="49.31205" lon="-0.62893">
        <ele>67.892546</ele>
        <time>2026-05-16T08:52:00.825Z</time>
      </trkpt>
      <trkpt lat="49.31197" lon="-0.62884">
        <ele>67.983603</ele>
        <time>2026-05-16T08:52:09.813Z</time>
      </trkpt>
      <trkpt lat="49.3119" lon="-0.62873">
        <ele>68.0804</ele>
        <time>2026-05-16T08:52:18.802Z</time>
      </trkpt>
      <trkpt lat="49.31184" lon="-0.62861">
        <ele>68.175222</ele>
        <time>2026-05-16T08:52:27.801Z</time>
      </trkpt>
      <trkpt lat="49.31182" lon="-0.62846">
        <ele>68.270989</ele>
        <time>2026-05-16T08:52:36.810Z</time>
      </trkpt>
      <trkpt lat="49.31177" lon="-0.62833">
        <ele>68.363696</ele>
        <time>2026-05-16T08:52:45.806Z</time>
      </trkpt>
      <trkpt lat="49.31171" lon="-0.6282">
        <ele>68.458575</ele>
        <time>2026-05-16T08:52:54.815Z</time>
      </trkpt>
      <trkpt lat="49.31166" lon="-0.62809">
        <ele>68.550578</ele>
        <time>2026-05-16T08:53:03.803Z</time>
      </trkpt>
      <trkpt lat="49.31158" lon="-0.628">
        <ele>68.642692</ele>
        <time>2026-05-16T08:53:13.780Z</time>
      </trkpt>
      <trkpt lat="49.31148" lon="-0.62819">
        <ele>68.799754</ele>
        <time>2026-05-16T08:53:52.786Z</time>
      </trkpt>
      <trkpt lat="49.31141" lon="-0.62829">
        <ele>68.964343</ele>
        <time>2026-05-16T08:54:03.785Z</time>
      </trkpt>
      <trkpt lat="49.31134" lon="-0.62838">
        <ele>69.191621</ele>
        <time>2026-05-16T08:54:21.784Z</time>
      </trkpt>
      <trkpt lat="49.31125" lon="-0.62845">
        <ele>69.434595</ele>
        <time>2026-05-16T08:54:29.781Z</time>
      </trkpt>
      <trkpt lat="49.31117" lon="-0.62854">
        <ele>69.675493</ele>
        <time>2026-05-16T08:54:38.787Z</time>
      </trkpt>
      <trkpt lat="49.3111" lon="-0.62864">
        <ele>69.910318</ele>
        <time>2026-05-16T08:54:47.780Z</time>
      </trkpt>
      <trkpt lat="49.31103" lon="-0.62874">
        <ele>70.154117</ele>
        <time>2026-05-16T08:54:55.788Z</time>
      </trkpt>
      <trkpt lat="49.31095" lon="-0.62882">
        <ele>70.377183</ele>
        <time>2026-05-16T08:55:04.791Z</time>
      </trkpt>
      <trkpt lat="49.31086" lon="-0.62888">
        <ele>70.61156</ele>
        <time>2026-05-16T08:55:16.791Z</time>
      </trkpt>
      <trkpt lat="49.3108" lon="-0.62898">
        <ele>70.835261</ele>
        <time>2026-05-16T08:55:25.787Z</time>
      </trkpt>
      <trkpt lat="49.31074" lon="-0.62909">
        <ele>71.060625</ele>
        <time>2026-05-16T08:55:34.788Z</time>
      </trkpt>
      <trkpt lat="49.31067" lon="-0.62919">
        <ele>71.285517</ele>
        <time>2026-05-16T08:55:43.789Z</time>
      </trkpt>
      <trkpt lat="49.31062" lon="-0.6293">
        <ele>71.513697</ele>
        <time>2026-05-16T08:55:50.788Z</time>
      </trkpt>
      <trkpt lat="49.31055" lon="-0.6294">
        <ele>71.73403</ele>
        <time>2026-05-16T08:55:58.790Z</time>
      </trkpt>
      <trkpt lat="49.31049" lon="-0.62952">
        <ele>71.980172</ele>
        <time>2026-05-16T08:56:07.787Z</time>
      </trkpt>
      <trkpt lat="49.31041" lon="-0.62962">
        <ele>72.233794</ele>
        <time>2026-05-16T08:56:15.784Z</time>
      </trkpt>
      <trkpt lat="49.31034" lon="-0.62972">
        <ele>72.465056</ele>
        <time>2026-05-16T08:56:23.789Z</time>
      </trkpt>
      <trkpt lat="49.31029" lon="-0.62984">
        <ele>72.684862</ele>
        <time>2026-05-16T08:56:32.788Z</time>
      </trkpt>
      <trkpt lat="49.31023" lon="-0.62996">
        <ele>72.925699</ele>
        <time>2026-05-16T08:56:43.789Z</time>
      </trkpt>
      <trkpt lat="49.31016" lon="-0.63005">
        <ele>73.148977</ele>
        <time>2026-05-16T08:56:52.786Z</time>
      </trkpt>
      <trkpt lat="49.31009" lon="-0.63016">
        <ele>73.422134</ele>
        <time>2026-05-16T08:57:01.787Z</time>
      </trkpt>
      <trkpt lat="49.31002" lon="-0.63025">
        <ele>73.707941</ele>
        <time>2026-05-16T08:57:10.793Z</time>
      </trkpt>
      <trkpt lat="49.30995" lon="-0.63035">
        <ele>73.998546</ele>
        <time>2026-05-16T08:57:20.790Z</time>
      </trkpt>
      <trkpt lat="49.30988" lon="-0.63045">
        <ele>74.284452</ele>
        <time>2026-05-16T08:57:31.772Z</time>
      </trkpt>
      <trkpt lat="49.30981" lon="-0.63054">
        <ele>74.564088</ele>
        <time>2026-05-16T08:57:39.799Z</time>
      </trkpt>
      <trkpt lat="49.30963" lon="-0.63077">
        <ele>75.260465</ele>
        <time>2026-05-16T08:58:29.800Z</time>
      </trkpt>
      <trkpt lat="49.30955" lon="-0.63085">
        <ele>75.562377</ele>
        <time>2026-05-16T08:58:38.800Z</time>
      </trkpt>
      <trkpt lat="49.30948" lon="-0.63097">
        <ele>75.857779</ele>
        <time>2026-05-16T08:58:47.795Z</time>
      </trkpt>
      <trkpt lat="49.30941" lon="-0.63105">
        <ele>76.129044</ele>
        <time>2026-05-16T08:58:56.809Z</time>
      </trkpt>
      <trkpt lat="49.30934" lon="-0.63114">
        <ele>76.410548</ele>
        <time>2026-05-16T08:59:05.795Z</time>
      </trkpt>
      <trkpt lat="49.30929" lon="-0.63127">
        <ele>76.708469</ele>
        <time>2026-05-16T08:59:14.796Z</time>
      </trkpt>
      <trkpt lat="49.30921" lon="-0.63134">
        <ele>76.989327</ele>
        <time>2026-05-16T08:59:23.800Z</time>
      </trkpt>
      <trkpt lat="49.30914" lon="-0.63143">
        <ele>77.263167</ele>
        <time>2026-05-16T08:59:32.803Z</time>
      </trkpt>
      <trkpt lat="49.30907" lon="-0.63154">
        <ele>77.55166</ele>
        <time>2026-05-16T08:59:40.795Z</time>
      </trkpt>
      <trkpt lat="49.30899" lon="-0.63162">
        <ele>77.842295</ele>
        <time>2026-05-16T08:59:49.809Z</time>
      </trkpt>
      <trkpt lat="49.3089" lon="-0.63168">
        <ele>78.135093</ele>
        <time>2026-05-16T08:59:58.798Z</time>
      </trkpt>
      <trkpt lat="49.30881" lon="-0.63169">
        <ele>78.416019</ele>
        <time>2026-05-16T09:00:08.796Z</time>
      </trkpt>
      <trkpt lat="49.30879" lon="-0.63155">
        <ele>78.567681</ele>
        <time>2026-05-16T09:00:30.783Z</time>
      </trkpt>
      <trkpt lat="49.30881" lon="-0.63141">
        <ele>78.312033</ele>
        <time>2026-05-16T09:00:39.790Z</time>
      </trkpt>
      <trkpt lat="49.30887" lon="-0.63129">
        <ele>78.041743</ele>
        <time>2026-05-16T09:00:47.787Z</time>
      </trkpt>
      <trkpt lat="49.30888" lon="-0.63115">
        <ele>77.783861</ele>
        <time>2026-05-16T09:00:55.789Z</time>
      </trkpt>
      <trkpt lat="49.3089" lon="-0.631">
        <ele>77.501754</ele>
        <time>2026-05-16T09:01:04.792Z</time>
      </trkpt>
      <trkpt lat="49.30892" lon="-0.63086">
        <ele>77.237164</ele>
        <time>2026-05-16T09:01:12.800Z</time>
      </trkpt>
      <trkpt lat="49.30895" lon="-0.63072">
        <ele>76.97959</ele>
        <time>2026-05-16T09:01:21.809Z</time>
      </trkpt>
      <trkpt lat="49.30895" lon="-0.63057">
        <ele>76.717318</ele>
        <time>2026-05-16T09:01:34.807Z</time>
      </trkpt>
      <trkpt lat="49.30897" lon="-0.63043">
        <ele>76.452685</ele>
        <time>2026-05-16T09:01:42.804Z</time>
      </trkpt>
      <trkpt lat="49.30899" lon="-0.63029">
        <ele>76.181442</ele>
        <time>2026-05-16T09:01:50.804Z</time>
      </trkpt>
      <trkpt lat="49.30901" lon="-0.63015">
        <ele>75.929807</ele>
        <time>2026-05-16T09:01:58.804Z</time>
      </trkpt>
      <trkpt lat="49.30903" lon="-0.63001">
        <ele>75.662196</ele>
        <time>2026-05-16T09:02:07.806Z</time>
      </trkpt>
      <trkpt lat="49.30905" lon="-0.62985">
        <ele>75.3791</ele>
        <time>2026-05-16T09:02:16.805Z</time>
      </trkpt>
      <trkpt lat="49.30906" lon="-0.62971">
        <ele>75.118063</ele>
        <time>2026-05-16T09:02:24.804Z</time>
      </trkpt>
      <trkpt lat="49.30907" lon="-0.62957">
        <ele>74.865363</ele>
        <time>2026-05-16T09:02:32.804Z</time>
      </trkpt>
      <trkpt lat="49.30909" lon="-0.62943">
        <ele>74.593124</ele>
        <time>2026-05-16T09:02:41.796Z</time>
      </trkpt>
      <trkpt lat="49.3091" lon="-0.62929">
        <ele>74.338357</ele>
        <time>2026-05-16T09:02:49.808Z</time>
      </trkpt>
      <trkpt lat="49.30912" lon="-0.62914">
        <ele>74.068378</ele>
        <time>2026-05-16T09:02:57.819Z</time>
      </trkpt>
      <trkpt lat="49.30914" lon="-0.629">
        <ele>73.804658</ele>
        <time>2026-05-16T09:03:05.797Z</time>
      </trkpt>
      <trkpt lat="49.30917" lon="-0.62887">
        <ele>73.59804</ele>
        <time>2026-05-16T09:03:13.804Z</time>
      </trkpt>
      <trkpt lat="49.30919" lon="-0.62872">
        <ele>73.507552</ele>
        <time>2026-05-16T09:03:21.804Z</time>
      </trkpt>
      <trkpt lat="49.3092" lon="-0.62858">
        <ele>73.416843</ele>
        <time>2026-05-16T09:03:30.802Z</time>
      </trkpt>
      <trkpt lat="49.30921" lon="-0.62843">
        <ele>73.327732</ele>
        <time>2026-05-16T09:03:39.805Z</time>
      </trkpt>
      <trkpt lat="49.30923" lon="-0.6283">
        <ele>73.242466</ele>
        <time>2026-05-16T09:03:47.809Z</time>
      </trkpt>
      <trkpt lat="49.30923" lon="-0.62815">
        <ele>73.14982</ele>
        <time>2026-05-16T09:03:54.808Z</time>
      </trkpt>
      <trkpt lat="49.30923" lon="-0.62799">
        <ele>73.056561</ele>
        <time>2026-05-16T09:04:03.800Z</time>
      </trkpt>
      <trkpt lat="49.30924" lon="-0.62784">
        <ele>72.964634</ele>
        <time>2026-05-16T09:04:12.814Z</time>
      </trkpt>
      <trkpt lat="49.30925" lon="-0.62771">
        <ele>72.879235</ele>
        <time>2026-05-16T09:04:20.808Z</time>
      </trkpt>
      <trkpt lat="49.30927" lon="-0.62756">
        <ele>72.78477</ele>
        <time>2026-05-16T09:04:30.802Z</time>
      </trkpt>
      <trkpt lat="49.30929" lon="-0.6274">
        <ele>72.690309</ele>
        <time>2026-05-16T09:04:40.787Z</time>
      </trkpt>
      <trkpt lat="49.30932" lon="-0.62727">
        <ele>72.601707</ele>
        <time>2026-05-16T09:04:49.805Z</time>
      </trkpt>
      <trkpt lat="49.30927" lon="-0.62714">
        <ele>72.510789</ele>
        <time>2026-05-16T09:04:57.793Z</time>
      </trkpt>
      <trkpt lat="49.30924" lon="-0.627">
        <ele>72.420446</ele>
        <time>2026-05-16T09:05:05.807Z</time>
      </trkpt>
      <trkpt lat="49.30921" lon="-0.62685">
        <ele>72.325438</ele>
        <time>2026-05-16T09:05:13.805Z</time>
      </trkpt>
      <trkpt lat="49.30917" lon="-0.62671">
        <ele>72.232261</ele>
        <time>2026-05-16T09:05:21.794Z</time>
      </trkpt>
      <trkpt lat="49.30912" lon="-0.62658">
        <ele>72.139067</ele>
        <time>2026-05-16T09:05:29.807Z</time>
      </trkpt>
      <trkpt lat="49.30907" lon="-0.62646">
        <ele>72.053306</ele>
        <time>2026-05-16T09:05:37.806Z</time>
      </trkpt>
      <trkpt lat="49.30903" lon="-0.62632">
        <ele>71.960336</ele>
        <time>2026-05-16T09:05:45.776Z</time>
      </trkpt>
      <trkpt lat="49.30898" lon="-0.62619">
        <ele>72.034938</ele>
        <time>2026-05-16T09:05:54.793Z</time>
      </trkpt>
      <trkpt lat="49.30892" lon="-0.62606">
        <ele>72.188352</ele>
        <time>2026-05-16T09:06:03.789Z</time>
      </trkpt>
      <trkpt lat="49.30885" lon="-0.62597">
        <ele>72.330754</ele>
        <time>2026-05-16T09:06:11.785Z</time>
      </trkpt>
      <trkpt lat="49.30879" lon="-0.62585">
        <ele>72.484462</ele>
        <time>2026-05-16T09:06:20.808Z</time>
      </trkpt>
      <trkpt lat="49.30873" lon="-0.62573">
        <ele>72.634152</ele>
        <time>2026-05-16T09:06:29.796Z</time>
      </trkpt>
      <trkpt lat="49.30864" lon="-0.62568">
        <ele>72.775599</ele>
        <time>2026-05-16T09:06:38.786Z</time>
      </trkpt>
      <trkpt lat="49.30855" lon="-0.62571">
        <ele>72.915338</ele>
        <time>2026-05-16T09:06:47.781Z</time>
      </trkpt>
      <trkpt lat="49.30853" lon="-0.62558">
        <ele>73.054061</ele>
        <time>2026-05-16T09:06:57.802Z</time>
      </trkpt>
      <trkpt lat="49.30856" lon="-0.62543">
        <ele>73.204535</ele>
        <time>2026-05-16T09:07:08.804Z</time>
      </trkpt>
      <trkpt lat="49.30851" lon="-0.6253">
        <ele>73.358923</ele>
        <time>2026-05-16T09:07:18.804Z</time>
      </trkpt>
      <trkpt lat="49.30845" lon="-0.6252">
        <ele>73.498411</ele>
        <time>2026-05-16T09:07:27.807Z</time>
      </trkpt>
      <trkpt lat="49.3084" lon="-0.62507">
        <ele>73.640635</ele>
        <time>2026-05-16T09:07:36.804Z</time>
      </trkpt>
      <trkpt lat="49.30835" lon="-0.62495">
        <ele>73.785708</ele>
        <time>2026-05-16T09:07:46.798Z</time>
      </trkpt>
      <trkpt lat="49.30833" lon="-0.6248">
        <ele>73.936872</ele>
        <time>2026-05-16T09:07:55.788Z</time>
      </trkpt>
      <trkpt lat="49.30831" lon="-0.62466">
        <ele>74.07732</ele>
        <time>2026-05-16T09:08:05.788Z</time>
      </trkpt>
      <trkpt lat="49.30834" lon="-0.62452">
        <ele>74.220251</ele>
        <time>2026-05-16T09:08:15.798Z</time>
      </trkpt>
      <trkpt lat="49.30837" lon="-0.62439">
        <ele>74.36311</ele>
        <time>2026-05-16T09:08:27.806Z</time>
      </trkpt>
      <trkpt lat="49.30841" lon="-0.62426">
        <ele>74.504597</ele>
        <time>2026-05-16T09:08:37.799Z</time>
      </trkpt>
      <trkpt lat="49.30844" lon="-0.62412">
        <ele>74.649991</ele>
        <time>2026-05-16T09:08:49.794Z</time>
      </trkpt>
      <trkpt lat="49.30847" lon="-0.62398">
        <ele>74.68195</ele>
        <time>2026-05-16T09:08:59.803Z</time>
      </trkpt>
      <trkpt lat="49.30849" lon="-0.62384">
        <ele>74.690254</ele>
        <time>2026-05-16T09:09:08.795Z</time>
      </trkpt>
      <trkpt lat="49.30851" lon="-0.62371">
        <ele>74.698456</ele>
        <time>2026-05-16T09:09:17.797Z</time>
      </trkpt>
      <trkpt lat="49.30853" lon="-0.62356">
        <ele>74.707387</ele>
        <time>2026-05-16T09:09:27.793Z</time>
      </trkpt>
      <trkpt lat="49.30858" lon="-0.62345">
        <ele>74.71559</ele>
        <time>2026-05-16T09:09:37.790Z</time>
      </trkpt>
      <trkpt lat="49.30863" lon="-0.62331">
        <ele>74.72462</ele>
        <time>2026-05-16T09:09:46.807Z</time>
      </trkpt>
      <trkpt lat="49.30866" lon="-0.62318">
        <ele>74.733132</ele>
        <time>2026-05-16T09:09:56.794Z</time>
      </trkpt>
      <trkpt lat="49.30869" lon="-0.62304">
        <ele>74.741885</ele>
        <time>2026-05-16T09:10:07.812Z</time>
      </trkpt>
      <trkpt lat="49.30874" lon="-0.62292">
        <ele>74.750187</ele>
        <time>2026-05-16T09:10:17.800Z</time>
      </trkpt>
      <trkpt lat="49.30878" lon="-0.62279">
        <ele>74.75868</ele>
        <time>2026-05-16T09:10:27.803Z</time>
      </trkpt>
      <trkpt lat="49.30883" lon="-0.62255">
        <ele>74.773945</ele>
        <time>2026-05-16T09:11:55.801Z</time>
      </trkpt>
      <trkpt lat="49.30889" lon="-0.62244">
        <ele>74.782295</ele>
        <time>2026-05-16T09:12:06.787Z</time>
      </trkpt>
      <trkpt lat="49.30892" lon="-0.62229">
        <ele>74.791447</ele>
        <time>2026-05-16T09:12:19.803Z</time>
      </trkpt>
      <trkpt lat="49.30897" lon="-0.62214">
        <ele>74.801404</ele>
        <time>2026-05-16T09:14:00.778Z</time>
      </trkpt>
      <trkpt lat="49.30903" lon="-0.62202">
        <ele>74.810167</ele>
        <time>2026-05-16T09:14:11.783Z</time>
      </trkpt>
      <trkpt lat="49.30908" lon="-0.62191">
        <ele>74.818386</ele>
        <time>2026-05-16T09:14:25.789Z</time>
      </trkpt>
      <trkpt lat="49.30916" lon="-0.62184">
        <ele>74.826908</ele>
        <time>2026-05-16T09:14:35.797Z</time>
      </trkpt>
      <trkpt lat="49.30923" lon="-0.62172">
        <ele>74.836388</ele>
        <time>2026-05-16T09:14:40.806Z</time>
      </trkpt>
      <trkpt lat="49.30929" lon="-0.62161">
        <ele>74.723273</ele>
        <time>2026-05-16T09:14:47.799Z</time>
      </trkpt>
      <trkpt lat="49.30936" lon="-0.62151">
        <ele>74.564242</ele>
        <time>2026-05-16T09:14:58.794Z</time>
      </trkpt>
      <trkpt lat="49.30944" lon="-0.62143">
        <ele>74.408508</ele>
        <time>2026-05-16T09:15:07.796Z</time>
      </trkpt>
      <trkpt lat="49.3095" lon="-0.62132">
        <ele>74.243418</ele>
        <time>2026-05-16T09:15:17.796Z</time>
      </trkpt>
      <trkpt lat="49.30957" lon="-0.62121">
        <ele>74.081995</ele>
        <time>2026-05-16T09:15:26.805Z</time>
      </trkpt>
      <trkpt lat="49.30964" lon="-0.62111">
        <ele>73.91875</ele>
        <time>2026-05-16T09:15:35.792Z</time>
      </trkpt>
      <trkpt lat="49.3097" lon="-0.62101">
        <ele>73.769178</ele>
        <time>2026-05-16T09:15:42.801Z</time>
      </trkpt>
      <trkpt lat="49.30977" lon="-0.6209">
        <ele>73.607161</ele>
        <time>2026-05-16T09:15:49.796Z</time>
      </trkpt>
      <trkpt lat="49.30984" lon="-0.62081">
        <ele>73.454613</ele>
        <time>2026-05-16T09:15:56.804Z</time>
      </trkpt>
      <trkpt lat="49.30991" lon="-0.62072">
        <ele>73.301189</ele>
        <time>2026-05-16T09:16:04.798Z</time>
      </trkpt>
      <trkpt lat="49.30999" lon="-0.62064">
        <ele>73.1507</ele>
        <time>2026-05-16T09:16:14.784Z</time>
      </trkpt>
      <trkpt lat="49.31009" lon="-0.62054">
        <ele>72.955793</ele>
        <time>2026-05-16T09:16:29.779Z</time>
      </trkpt>
      <trkpt lat="49.31017" lon="-0.62048">
        <ele>72.801746</ele>
        <time>2026-05-16T09:16:40.803Z</time>
      </trkpt>
      <trkpt lat="49.31026" lon="-0.62042">
        <ele>72.639414</ele>
        <time>2026-05-16T09:16:54.801Z</time>
      </trkpt>
      <trkpt lat="49.31033" lon="-0.62032">
        <ele>72.474914</ele>
        <time>2026-05-16T09:17:04.808Z</time>
      </trkpt>
      <trkpt lat="49.31041" lon="-0.62023">
        <ele>72.320527</ele>
        <time>2026-05-16T09:17:12.799Z</time>
      </trkpt>
      <trkpt lat="49.31047" lon="-0.62014">
        <ele>72.170796</ele>
        <time>2026-05-16T09:17:20.794Z</time>
      </trkpt>
      <trkpt lat="49.31054" lon="-0.62005">
        <ele>72.020572</ele>
        <time>2026-05-16T09:17:28.797Z</time>
      </trkpt>
      <trkpt lat="49.31061" lon="-0.61995">
        <ele>71.85982</ele>
        <time>2026-05-16T09:17:36.798Z</time>
      </trkpt>
      <trkpt lat="49.31067" lon="-0.61982">
        <ele>71.7955</ele>
        <time>2026-05-16T09:17:45.806Z</time>
      </trkpt>
      <trkpt lat="49.31074" lon="-0.61972">
        <ele>71.739159</ele>
        <time>2026-05-16T09:17:54.796Z</time>
      </trkpt>
      <trkpt lat="49.31081" lon="-0.61961">
        <ele>71.680809</ele>
        <time>2026-05-16T09:18:03.791Z</time>
      </trkpt>
      <trkpt lat="49.31087" lon="-0.61952">
        <ele>71.627994</ele>
        <time>2026-05-16T09:18:11.798Z</time>
      </trkpt>
      <trkpt lat="49.31094" lon="-0.6194">
        <ele>71.569598</ele>
        <time>2026-05-16T09:18:20.793Z</time>
      </trkpt>
      <trkpt lat="49.31101" lon="-0.6193">
        <ele>71.512352</ele>
        <time>2026-05-16T09:18:30.794Z</time>
      </trkpt>
      <trkpt lat="49.31107" lon="-0.6192">
        <ele>71.459038</ele>
        <time>2026-05-16T09:18:39.801Z</time>
      </trkpt>
      <trkpt lat="49.31114" lon="-0.6191">
        <ele>71.405438</ele>
        <time>2026-05-16T09:18:47.795Z</time>
      </trkpt>
      <trkpt lat="49.31121" lon="-0.619">
        <ele>71.348412</ele>
        <time>2026-05-16T09:18:56.801Z</time>
      </trkpt>
      <trkpt lat="49.31128" lon="-0.61889">
        <ele>71.291753</ele>
        <time>2026-05-16T09:19:05.795Z</time>
      </trkpt>
      <trkpt lat="49.31135" lon="-0.6188">
        <ele>71.237806</ele>
        <time>2026-05-16T09:19:14.792Z</time>
      </trkpt>
      <trkpt lat="49.31142" lon="-0.6187">
        <ele>71.17957</ele>
        <time>2026-05-16T09:19:23.798Z</time>
      </trkpt>
      <trkpt lat="49.31149" lon="-0.6186">
        <ele>71.125281</ele>
        <time>2026-05-16T09:19:32.796Z</time>
      </trkpt>
      <trkpt lat="49.31155" lon="-0.6185">
        <ele>71.073056</ele>
        <time>2026-05-16T09:19:40.799Z</time>
      </trkpt>
      <trkpt lat="49.31163" lon="-0.6184">
        <ele>71.015505</ele>
        <time>2026-05-16T09:19:49.795Z</time>
      </trkpt>
      <trkpt lat="49.31169" lon="-0.61828">
        <ele>70.956817</ele>
        <time>2026-05-16T09:19:58.798Z</time>
      </trkpt>
      <trkpt lat="49.31175" lon="-0.61818">
        <ele>70.903365</ele>
        <time>2026-05-16T09:20:06.795Z</time>
      </trkpt>
      <trkpt lat="49.31183" lon="-0.61808">
        <ele>70.846859</ele>
        <time>2026-05-16T09:20:14.792Z</time>
      </trkpt>
      <trkpt lat="49.31188" lon="-0.61797">
        <ele>70.797806</ele>
        <time>2026-05-16T09:20:22.803Z</time>
      </trkpt>
      <trkpt lat="49.31194" lon="-0.61786">
        <ele>70.787776</ele>
        <time>2026-05-16T09:20:31.792Z</time>
      </trkpt>
      <trkpt lat="49.31201" lon="-0.61775">
        <ele>70.777207</ele>
        <time>2026-05-16T09:20:40.796Z</time>
      </trkpt>
      <trkpt lat="49.31208" lon="-0.61763">
        <ele>70.766576</ele>
        <time>2026-05-16T09:20:49.795Z</time>
      </trkpt>
      <trkpt lat="49.31215" lon="-0.61752">
        <ele>70.756448</ele>
        <time>2026-05-16T09:20:58.801Z</time>
      </trkpt>
      <trkpt lat="49.3122" lon="-0.61741">
        <ele>70.746722</ele>
        <time>2026-05-16T09:21:07.798Z</time>
      </trkpt>
      <trkpt lat="49.31226" lon="-0.61729">
        <ele>70.736742</ele>
        <time>2026-05-16T09:21:17.804Z</time>
      </trkpt>
      <trkpt lat="49.31233" lon="-0.6172">
        <ele>70.726762</ele>
        <time>2026-05-16T09:21:26.791Z</time>
      </trkpt>
      <trkpt lat="49.31239" lon="-0.61708">
        <ele>70.716747</ele>
        <time>2026-05-16T09:21:35.798Z</time>
      </trkpt>
      <trkpt lat="49.31246" lon="-0.61698">
        <ele>70.706662</ele>
        <time>2026-05-16T09:21:44.789Z</time>
      </trkpt>
      <trkpt lat="49.31252" lon="-0.61685">
        <ele>70.696284</ele>
        <time>2026-05-16T09:21:57.798Z</time>
      </trkpt>
      <trkpt lat="49.31258" lon="-0.61675">
        <ele>70.686228</ele>
        <time>2026-05-16T09:22:06.795Z</time>
      </trkpt>
      <trkpt lat="49.31264" lon="-0.61663">
        <ele>70.67585</ele>
        <time>2026-05-16T09:22:16.800Z</time>
      </trkpt>
      <trkpt lat="49.31268" lon="-0.61649">
        <ele>70.665869</ele>
        <time>2026-05-16T09:22:26.792Z</time>
      </trkpt>
      <trkpt lat="49.31276" lon="-0.61634">
        <ele>70.652295</ele>
        <time>2026-05-16T09:22:50.797Z</time>
      </trkpt>
      <trkpt lat="49.31283" lon="-0.61624">
        <ele>70.642756</ele>
        <time>2026-05-16T09:23:00.808Z</time>
      </trkpt>
      <trkpt lat="49.31289" lon="-0.61613">
        <ele>70.633084</ele>
        <time>2026-05-16T09:23:10.798Z</time>
      </trkpt>
      <trkpt lat="49.31294" lon="-0.61602">
        <ele>70.623358</ele>
        <time>2026-05-16T09:23:21.795Z</time>
      </trkpt>
      <trkpt lat="49.31299" lon="-0.61591">
        <ele>70.613911</ele>
        <time>2026-05-16T09:23:30.795Z</time>
      </trkpt>
      <trkpt lat="49.31304" lon="-0.61578">
        <ele>70.420525</ele>
        <time>2026-05-16T09:23:40.792Z</time>
      </trkpt>
      <trkpt lat="49.31311" lon="-0.61566">
        <ele>70.104163</ele>
        <time>2026-05-16T09:24:33.807Z</time>
      </trkpt>
      <trkpt lat="49.31315" lon="-0.61552">
        <ele>69.821864</ele>
        <time>2026-05-16T09:25:21.795Z</time>
      </trkpt>
      <trkpt lat="49.31321" lon="-0.61541">
        <ele>69.537957</ele>
        <time>2026-05-16T09:25:33.795Z</time>
      </trkpt>
      <trkpt lat="49.31326" lon="-0.61528">
        <ele>69.251042</ele>
        <time>2026-05-16T09:25:43.793Z</time>
      </trkpt>
      <trkpt lat="49.31332" lon="-0.61516">
        <ele>68.959254</ele>
        <time>2026-05-16T09:25:53.798Z</time>
      </trkpt>
      <trkpt lat="49.31335" lon="-0.61503">
        <ele>68.681241</ele>
        <time>2026-05-16T09:26:02.791Z</time>
      </trkpt>
      <trkpt lat="49.3134" lon="-0.6149">
        <ele>68.384331</ele>
        <time>2026-05-16T09:26:11.792Z</time>
      </trkpt>
      <trkpt lat="49.31344" lon="-0.61477">
        <ele>68.103212</ele>
        <time>2026-05-16T09:26:20.793Z</time>
      </trkpt>
      <trkpt lat="49.31348" lon="-0.61464">
        <ele>67.818135</ele>
        <time>2026-05-16T09:26:29.807Z</time>
      </trkpt>
      <trkpt lat="49.31352" lon="-0.6145">
        <ele>67.527155</ele>
        <time>2026-05-16T09:26:38.797Z</time>
      </trkpt>
      <trkpt lat="49.31356" lon="-0.61438">
        <ele>67.255663</ele>
        <time>2026-05-16T09:26:46.797Z</time>
      </trkpt>
      <trkpt lat="49.3136" lon="-0.61424">
        <ele>66.963172</ele>
        <time>2026-05-16T09:26:55.794Z</time>
      </trkpt>
      <trkpt lat="49.31362" lon="-0.6141">
        <ele>66.689855</ele>
        <time>2026-05-16T09:27:03.792Z</time>
      </trkpt>
      <trkpt lat="49.31364" lon="-0.61395">
        <ele>66.38661</ele>
        <time>2026-05-16T09:27:11.803Z</time>
      </trkpt>
      <trkpt lat="49.31365" lon="-0.61381">
        <ele>66.100775</ele>
        <time>2026-05-16T09:27:19.800Z</time>
      </trkpt>
      <trkpt lat="49.31366" lon="-0.61366">
        <ele>65.802561</ele>
        <time>2026-05-16T09:27:28.106Z</time>
      </trkpt>
      <trkpt lat="49.31367" lon="-0.61351">
        <ele>65.51886</ele>
        <time>2026-05-16T09:27:35.795Z</time>
      </trkpt>
      <trkpt lat="49.31367" lon="-0.61337">
        <ele>65.236682</ele>
        <time>2026-05-16T09:27:44.793Z</time>
      </trkpt>
      <trkpt lat="49.31368" lon="-0.61322">
        <ele>65.248709</ele>
        <time>2026-05-16T09:27:53.792Z</time>
      </trkpt>
      <trkpt lat="49.31368" lon="-0.61308">
        <ele>65.286144</ele>
        <time>2026-05-16T09:28:00.791Z</time>
      </trkpt>
      <trkpt lat="49.31366" lon="-0.61293">
        <ele>65.323726</ele>
        <time>2026-05-16T09:28:11.792Z</time>
      </trkpt>
      <trkpt lat="49.31367" lon="-0.61279">
        <ele>65.360014</ele>
        <time>2026-05-16T09:28:29.800Z</time>
      </trkpt>
      <trkpt lat="49.31372" lon="-0.61267">
        <ele>65.396274</ele>
        <time>2026-05-16T09:28:41.793Z</time>
      </trkpt>
      <trkpt lat="49.31374" lon="-0.61253">
        <ele>65.432019</ele>
        <time>2026-05-16T09:28:51.794Z</time>
      </trkpt>
      <trkpt lat="49.31378" lon="-0.61239">
        <ele>65.470903</ele>
        <time>2026-05-16T09:29:02.807Z</time>
      </trkpt>
      <trkpt lat="49.31382" lon="-0.61226">
        <ele>65.507569</ele>
        <time>2026-05-16T09:29:12.811Z</time>
      </trkpt>
      <trkpt lat="49.31386" lon="-0.61213">
        <ele>65.545027</ele>
        <time>2026-05-16T09:29:22.797Z</time>
      </trkpt>
      <trkpt lat="49.3139" lon="-0.612">
        <ele>65.580453</ele>
        <time>2026-05-16T09:29:30.790Z</time>
      </trkpt>
      <trkpt lat="49.31395" lon="-0.61187">
        <ele>65.619959</ele>
        <time>2026-05-16T09:29:38.793Z</time>
      </trkpt>
      <trkpt lat="49.314" lon="-0.61174">
        <ele>65.65837</ele>
        <time>2026-05-16T09:29:46.799Z</time>
      </trkpt>
      <trkpt lat="49.31406" lon="-0.61161">
        <ele>65.697892</ele>
        <time>2026-05-16T09:29:55.807Z</time>
      </trkpt>
      <trkpt lat="49.31411" lon="-0.61149">
        <ele>65.735488</ele>
        <time>2026-05-16T09:30:04.793Z</time>
      </trkpt>
      <trkpt lat="49.31416" lon="-0.61136">
        <ele>65.772822</ele>
        <time>2026-05-16T09:30:13.792Z</time>
      </trkpt>
      <trkpt lat="49.31422" lon="-0.61125">
        <ele>65.809305</ele>
        <time>2026-05-16T09:30:22.790Z</time>
      </trkpt>
      <trkpt lat="49.31428" lon="-0.61113">
        <ele>65.848124</ele>
        <time>2026-05-16T09:30:32.781Z</time>
      </trkpt>
      <trkpt lat="49.31432" lon="-0.611">
        <ele>65.884493</ele>
        <time>2026-05-16T09:30:42.796Z</time>
      </trkpt>
      <trkpt lat="49.31437" lon="-0.61088">
        <ele>65.899204</ele>
        <time>2026-05-16T09:30:55.792Z</time>
      </trkpt>
      <trkpt lat="49.31442" lon="-0.61076">
        <ele>65.769157</ele>
        <time>2026-05-16T09:31:20.799Z</time>
      </trkpt>
      <trkpt lat="49.31447" lon="-0.61064">
        <ele>65.638692</ele>
        <time>2026-05-16T09:31:30.802Z</time>
      </trkpt>
      <trkpt lat="49.31451" lon="-0.6105">
        <ele>65.501232</ele>
        <time>2026-05-16T09:31:42.798Z</time>
      </trkpt>
      <trkpt lat="49.31456" lon="-0.61037">
        <ele>65.36182</ele>
        <time>2026-05-16T09:31:51.795Z</time>
      </trkpt>
      <trkpt lat="49.31461" lon="-0.61024">
        <ele>65.224359</ele>
        <time>2026-05-16T09:31:59.795Z</time>
      </trkpt>
      <trkpt lat="49.31465" lon="-0.6101">
        <ele>65.087625</ele>
        <time>2026-05-16T09:32:08.789Z</time>
      </trkpt>
      <trkpt lat="49.3147" lon="-0.60998">
        <ele>64.956068</ele>
        <time>2026-05-16T09:32:18.795Z</time>
      </trkpt>
      <trkpt lat="49.31474" lon="-0.60985">
        <ele>64.825796</ele>
        <time>2026-05-16T09:32:28.793Z</time>
      </trkpt>
      <trkpt lat="49.31475" lon="-0.60971">
        <ele>64.692287</ele>
        <time>2026-05-16T09:32:44.797Z</time>
      </trkpt>
      <trkpt lat="49.31479" lon="-0.60958">
        <ele>64.562321</ele>
        <time>2026-05-16T09:32:55.788Z</time>
      </trkpt>
      <trkpt lat="49.31482" lon="-0.60945">
        <ele>64.431261</ele>
        <time>2026-05-16T09:33:05.775Z</time>
      </trkpt>
      <trkpt lat="49.31485" lon="-0.6093">
        <ele>64.29197</ele>
        <time>2026-05-16T09:33:15.777Z</time>
      </trkpt>
      <trkpt lat="49.31486" lon="-0.60916">
        <ele>64.162627</ele>
        <time>2026-05-16T09:33:30.793Z</time>
      </trkpt>
      <trkpt lat="49.31487" lon="-0.60903">
        <ele>64.03582</ele>
        <time>2026-05-16T09:33:40.780Z</time>
      </trkpt>
      <trkpt lat="49.31485" lon="-0.60889">
        <ele>63.906288</ele>
        <time>2026-05-16T09:33:50.797Z</time>
      </trkpt>
      <trkpt lat="49.31484" lon="-0.60875">
        <ele>63.779052</ele>
        <time>2026-05-16T09:34:00.795Z</time>
      </trkpt>
      <trkpt lat="49.31482" lon="-0.60861">
        <ele>63.645298</ele>
        <time>2026-05-16T09:34:10.803Z</time>
      </trkpt>
      <trkpt lat="49.31481" lon="-0.60847">
        <ele>63.514402</ele>
        <time>2026-05-16T09:34:19.795Z</time>
      </trkpt>
      <trkpt lat="49.3148" lon="-0.60832">
        <ele>63.383886</ele>
        <time>2026-05-16T09:34:28.794Z</time>
      </trkpt>
      <trkpt lat="49.31479" lon="-0.60817">
        <ele>63.399561</ele>
        <time>2026-05-16T09:34:37.795Z</time>
      </trkpt>
      <trkpt lat="49.31478" lon="-0.60802">
        <ele>63.415341</ele>
        <time>2026-05-16T09:34:46.794Z</time>
      </trkpt>
      <trkpt lat="49.31477" lon="-0.60787">
        <ele>63.431037</ele>
        <time>2026-05-16T09:34:55.795Z</time>
      </trkpt>
      <trkpt lat="49.31475" lon="-0.60774">
        <ele>63.445535</ele>
        <time>2026-05-16T09:35:04.795Z</time>
      </trkpt>
      <trkpt lat="49.31474" lon="-0.6076">
        <ele>63.460447</ele>
        <time>2026-05-16T09:35:13.789Z</time>
      </trkpt>
      <trkpt lat="49.31473" lon="-0.60746">
        <ele>63.475338</ele>
        <time>2026-05-16T09:35:23.794Z</time>
      </trkpt>
      <trkpt lat="49.31474" lon="-0.60731">
        <ele>63.490752</ele>
        <time>2026-05-16T09:35:33.813Z</time>
      </trkpt>
      <trkpt lat="49.31472" lon="-0.60717">
        <ele>63.505371</ele>
        <time>2026-05-16T09:35:43.793Z</time>
      </trkpt>
      <trkpt lat="49.31473" lon="-0.60703">
        <ele>63.520651</ele>
        <time>2026-05-16T09:35:53.792Z</time>
      </trkpt>
      <trkpt lat="49.31476" lon="-0.60689">
        <ele>63.535459</ele>
        <time>2026-05-16T09:36:03.795Z</time>
      </trkpt>
      <trkpt lat="49.31481" lon="-0.60677">
        <ele>63.551312</ele>
        <time>2026-05-16T09:36:16.797Z</time>
      </trkpt>
      <trkpt lat="49.31484" lon="-0.60661">
        <ele>63.568999</ele>
        <time>2026-05-16T09:36:56.804Z</time>
      </trkpt>
      <trkpt lat="49.31488" lon="-0.60648">
        <ele>63.584014</ele>
        <time>2026-05-16T09:37:05.795Z</time>
      </trkpt>
      <trkpt lat="49.31493" lon="-0.60634">
        <ele>63.600007</ele>
        <time>2026-05-16T09:37:14.792Z</time>
      </trkpt>
      <trkpt lat="49.31497" lon="-0.60622">
        <ele>63.615216</ele>
        <time>2026-05-16T09:37:22.797Z</time>
      </trkpt>
      <trkpt lat="49.31503" lon="-0.60609">
        <ele>63.630801</ele>
        <time>2026-05-16T09:37:30.804Z</time>
      </trkpt>
      <trkpt lat="49.31508" lon="-0.60598">
        <ele>63.645339</ele>
        <time>2026-05-16T09:37:38.802Z</time>
      </trkpt>
      <trkpt lat="49.31514" lon="-0.60587">
        <ele>63.660808</ele>
        <time>2026-05-16T09:37:47.797Z</time>
      </trkpt>
      <trkpt lat="49.31521" lon="-0.60576">
        <ele>63.647951</ele>
        <time>2026-05-16T09:37:55.803Z</time>
      </trkpt>
      <trkpt lat="49.31528" lon="-0.60565">
        <ele>63.529353</ele>
        <time>2026-05-16T09:38:03.797Z</time>
      </trkpt>
      <trkpt lat="49.31533" lon="-0.60554">
        <ele>63.413765</ele>
        <time>2026-05-16T09:38:11.794Z</time>
      </trkpt>
      <trkpt lat="49.31539" lon="-0.60542">
        <ele>63.295661</ele>
        <time>2026-05-16T09:38:20.793Z</time>
      </trkpt>
      <trkpt lat="49.31545" lon="-0.60531">
        <ele>63.18626</ele>
        <time>2026-05-16T09:38:28.809Z</time>
      </trkpt>
      <trkpt lat="49.3155" lon="-0.6052">
        <ele>63.074218</ele>
        <time>2026-05-16T09:38:36.791Z</time>
      </trkpt>
      <trkpt lat="49.31555" lon="-0.60509">
        <ele>62.963206</ele>
        <time>2026-05-16T09:38:44.793Z</time>
      </trkpt>
      <trkpt lat="49.31561" lon="-0.60496">
        <ele>62.841563</ele>
        <time>2026-05-16T09:38:55.796Z</time>
      </trkpt>
      <trkpt lat="49.31568" lon="-0.60486">
        <ele>62.721327</ele>
        <time>2026-05-16T09:39:05.793Z</time>
      </trkpt>
      <trkpt lat="49.31575" lon="-0.60475">
        <ele>62.604498</ele>
        <time>2026-05-16T09:39:14.798Z</time>
      </trkpt>
      <trkpt lat="49.31581" lon="-0.60464">
        <ele>62.488242</ele>
        <time>2026-05-16T09:39:23.791Z</time>
      </trkpt>
      <trkpt lat="49.31588" lon="-0.60454">
        <ele>62.365316</ele>
        <time>2026-05-16T09:39:33.790Z</time>
      </trkpt>
      <trkpt lat="49.31594" lon="-0.60442">
        <ele>62.24785</ele>
        <time>2026-05-16T09:39:42.807Z</time>
      </trkpt>
      <trkpt lat="49.31599" lon="-0.6043">
        <ele>62.136471</ele>
        <time>2026-05-16T09:39:50.793Z</time>
      </trkpt>
      <trkpt lat="49.31604" lon="-0.60418">
        <ele>62.015722</ele>
        <time>2026-05-16T09:39:58.791Z</time>
      </trkpt>
      <trkpt lat="49.31609" lon="-0.60406">
        <ele>61.90034</ele>
        <time>2026-05-16T09:40:07.797Z</time>
      </trkpt>
      <trkpt lat="49.31614" lon="-0.60394">
        <ele>61.78763</ele>
        <time>2026-05-16T09:40:16.795Z</time>
      </trkpt>
      <trkpt lat="49.31618" lon="-0.60381">
        <ele>61.671046</ele>
        <time>2026-05-16T09:40:25.794Z</time>
      </trkpt>
      <trkpt lat="49.31623" lon="-0.60368">
        <ele>61.557159</ele>
        <time>2026-05-16T09:40:34.797Z</time>
      </trkpt>
      <trkpt lat="49.31627" lon="-0.60356">
        <ele>61.457138</ele>
        <time>2026-05-16T09:40:43.795Z</time>
      </trkpt>
      <trkpt lat="49.31633" lon="-0.60343">
        <ele>61.418534</ele>
        <time>2026-05-16T09:40:53.793Z</time>
      </trkpt>
      <trkpt lat="49.31638" lon="-0.60331">
        <ele>61.379699</ele>
        <time>2026-05-16T09:41:02.792Z</time>
      </trkpt>
      <trkpt lat="49.31642" lon="-0.60317">
        <ele>61.340439</ele>
        <time>2026-05-16T09:41:11.795Z</time>
      </trkpt>
      <trkpt lat="49.31647" lon="-0.60304">
        <ele>61.302235</ele>
        <time>2026-05-16T09:41:20.798Z</time>
      </trkpt>
      <trkpt lat="49.31651" lon="-0.60292">
        <ele>61.266621</ele>
        <time>2026-05-16T09:41:28.799Z</time>
      </trkpt>
      <trkpt lat="49.31653" lon="-0.60277">
        <ele>61.227907</ele>
        <time>2026-05-16T09:41:37.767Z</time>
      </trkpt>
      <trkpt lat="49.31658" lon="-0.60265">
        <ele>61.189732</ele>
        <time>2026-05-16T09:41:46.786Z</time>
      </trkpt>
      <trkpt lat="49.31663" lon="-0.60253">
        <ele>61.151985</ele>
        <time>2026-05-16T09:41:57.795Z</time>
      </trkpt>
      <trkpt lat="49.3167" lon="-0.60243">
        <ele>61.114411</ele>
        <time>2026-05-16T09:42:07.785Z</time>
      </trkpt>
      <trkpt lat="49.31677" lon="-0.60234">
        <ele>61.077071</ele>
        <time>2026-05-16T09:42:17.812Z</time>
      </trkpt>
      <trkpt lat="49.31684" lon="-0.60225">
        <ele>61.041437</ele>
        <time>2026-05-16T09:42:26.789Z</time>
      </trkpt>
      <trkpt lat="49.31691" lon="-0.60216">
        <ele>61.005</ele>
        <time>2026-05-16T09:42:35.782Z</time>
      </trkpt>
      <trkpt lat="49.31699" lon="-0.60207">
        <ele>60.966354</ele>
        <time>2026-05-16T09:42:44.792Z</time>
      </trkpt>
      <trkpt lat="49.31707" lon="-0.60197">
        <ele>60.926723</ele>
        <time>2026-05-16T09:42:54.790Z</time>
      </trkpt>
      <trkpt lat="49.31714" lon="-0.60188">
        <ele>60.888874</ele>
        <time>2026-05-16T09:43:06.798Z</time>
      </trkpt>
      <trkpt lat="49.31722" lon="-0.60179">
        <ele>60.849795</ele>
        <time>2026-05-16T09:43:16.792Z</time>
      </trkpt>
      <trkpt lat="49.31729" lon="-0.60169">
        <ele>60.811986</ele>
        <time>2026-05-16T09:43:26.793Z</time>
      </trkpt>
      <trkpt lat="49.31736" lon="-0.60159">
        <ele>60.773333</ele>
        <time>2026-05-16T09:43:35.816Z</time>
      </trkpt>
      <trkpt lat="49.31744" lon="-0.60149">
        <ele>60.728136</ele>
        <time>2026-05-16T09:43:44.800Z</time>
      </trkpt>
      <trkpt lat="49.3175" lon="-0.60139">
        <ele>60.681068</ele>
        <time>2026-05-16T09:43:53.791Z</time>
      </trkpt>
      <trkpt lat="49.31757" lon="-0.6013">
        <ele>60.631055</ele>
        <time>2026-05-16T09:44:02.804Z</time>
      </trkpt>
      <trkpt lat="49.31764" lon="-0.6012">
        <ele>60.583065</ele>
        <time>2026-05-16T09:44:11.792Z</time>
      </trkpt>
      <trkpt lat="49.31772" lon="-0.60111">
        <ele>60.530637</ele>
        <time>2026-05-16T09:44:20.792Z</time>
      </trkpt>
      <trkpt lat="49.31779" lon="-0.60102">
        <ele>60.482567</ele>
        <time>2026-05-16T09:44:28.796Z</time>
      </trkpt>
      <trkpt lat="49.31786" lon="-0.60093">
        <ele>60.435335</ele>
        <time>2026-05-16T09:44:36.799Z</time>
      </trkpt>
      <trkpt lat="49.31793" lon="-0.60084">
        <ele>60.388119</ele>
        <time>2026-05-16T09:44:44.795Z</time>
      </trkpt>
      <trkpt lat="49.318" lon="-0.60074">
        <ele>60.336314</ele>
        <time>2026-05-16T09:44:53.793Z</time>
      </trkpt>
      <trkpt lat="49.31809" lon="-0.60066">
        <ele>60.285366</ele>
        <time>2026-05-16T09:45:02.797Z</time>
      </trkpt>
      <trkpt lat="49.31816" lon="-0.60057">
        <ele>60.236068</ele>
        <time>2026-05-16T09:45:11.793Z</time>
      </trkpt>
      <trkpt lat="49.31823" lon="-0.60046">
        <ele>60.18351</ele>
        <time>2026-05-16T09:45:20.803Z</time>
      </trkpt>
      <trkpt lat="49.31831" lon="-0.60037">
        <ele>60.130753</ele>
        <time>2026-05-16T09:45:29.799Z</time>
      </trkpt>
      <trkpt lat="49.31839" lon="-0.60029">
        <ele>60.080193</ele>
        <time>2026-05-16T09:45:39.806Z</time>
      </trkpt>
      <trkpt lat="49.31847" lon="-0.6002">
        <ele>60.028548</ele>
        <time>2026-05-16T09:45:49.795Z</time>
      </trkpt>
      <trkpt lat="49.31855" lon="-0.60013">
        <ele>59.980286</ele>
        <time>2026-05-16T09:45:58.801Z</time>
      </trkpt>
      <trkpt lat="49.31863" lon="-0.60007">
        <ele>59.93192</ele>
        <time>2026-05-16T09:46:08.799Z</time>
      </trkpt>
      <trkpt lat="49.3187" lon="-0.59996">
        <ele>59.878756</ele>
        <time>2026-05-16T09:46:23.793Z</time>
      </trkpt>
      <trkpt lat="49.31879" lon="-0.59988">
        <ele>59.827903</ele>
        <time>2026-05-16T09:46:32.792Z</time>
      </trkpt>
      <trkpt lat="49.31887" lon="-0.59982">
        <ele>59.793907</ele>
        <time>2026-05-16T09:46:40.793Z</time>
      </trkpt>
      <trkpt lat="49.31895" lon="-0.59974">
        <ele>59.768967</ele>
        <time>2026-05-16T09:46:50.796Z</time>
      </trkpt>
      <trkpt lat="49.31904" lon="-0.59966">
        <ele>59.744396</ele>
        <time>2026-05-16T09:46:59.795Z</time>
      </trkpt>
      <trkpt lat="49.31912" lon="-0.59959">
        <ele>59.71906</ele>
        <time>2026-05-16T09:47:08.791Z</time>
      </trkpt>
      <trkpt lat="49.31921" lon="-0.59952">
        <ele>59.69539</ele>
        <time>2026-05-16T09:47:17.793Z</time>
      </trkpt>
      <trkpt lat="49.31929" lon="-0.59944">
        <ele>59.6707</ele>
        <time>2026-05-16T09:47:26.790Z</time>
      </trkpt>
      <trkpt lat="49.31937" lon="-0.59938">
        <ele>59.647268</ele>
        <time>2026-05-16T09:47:35.809Z</time>
      </trkpt>
      <trkpt lat="49.31946" lon="-0.59934">
        <ele>59.624212</ele>
        <time>2026-05-16T09:47:44.786Z</time>
      </trkpt>
      <trkpt lat="49.31954" lon="-0.59927">
        <ele>59.601377</ele>
        <time>2026-05-16T09:47:56.790Z</time>
      </trkpt>
      <trkpt lat="49.31969" lon="-0.59926">
        <ele>59.562202</ele>
        <time>2026-05-16T09:48:27.779Z</time>
      </trkpt>
      <trkpt lat="49.31974" lon="-0.59938">
        <ele>59.53819</ele>
        <time>2026-05-16T09:48:38.798Z</time>
      </trkpt>
      <trkpt lat="49.31983" lon="-0.59944">
        <ele>59.513334</ele>
        <time>2026-05-16T09:48:53.793Z</time>
      </trkpt>
      <trkpt lat="49.31985" lon="-0.5996">
        <ele>59.487406</ele>
        <time>2026-05-16T09:49:41.797Z</time>
      </trkpt>
      <trkpt lat="49.31989" lon="-0.59972">
        <ele>59.464104</ele>
        <time>2026-05-16T09:49:50.792Z</time>
      </trkpt>
      <trkpt lat="49.31994" lon="-0.59986">
        <ele>59.439252</ele>
        <time>2026-05-16T09:50:01.793Z</time>
      </trkpt>
      <trkpt lat="49.32" lon="-0.59996">
        <ele>59.416459</ele>
        <time>2026-05-16T09:50:10.797Z</time>
      </trkpt>
      <trkpt lat="49.32006" lon="-0.60008">
        <ele>59.391723</ele>
        <time>2026-05-16T09:50:19.804Z</time>
      </trkpt>
      <trkpt lat="49.32012" lon="-0.60018">
        <ele>59.368379</ele>
        <time>2026-05-16T09:50:28.796Z</time>
      </trkpt>
      <trkpt lat="49.32017" lon="-0.6003">
        <ele>59.435115</ele>
        <time>2026-05-16T09:50:37.794Z</time>
      </trkpt>
      <trkpt lat="49.32024" lon="-0.6004">
        <ele>59.685498</ele>
        <time>2026-05-16T09:50:47.800Z</time>
      </trkpt>
      <trkpt lat="49.32031" lon="-0.60051">
        <ele>59.934951</ele>
        <time>2026-05-16T09:50:57.795Z</time>
      </trkpt>
      <trkpt lat="49.3204" lon="-0.60058">
        <ele>60.183119</ele>
        <time>2026-05-16T09:51:06.801Z</time>
      </trkpt>
      <trkpt lat="49.32049" lon="-0.60063">
        <ele>60.436807</ele>
        <time>2026-05-16T09:51:16.796Z</time>
      </trkpt>
      <trkpt lat="49.32057" lon="-0.60068">
        <ele>60.674473</ele>
        <time>2026-05-16T09:51:25.798Z</time>
      </trkpt>
      <trkpt lat="49.32066" lon="-0.60071">
        <ele>60.907862</ele>
        <time>2026-05-16T09:51:34.802Z</time>
      </trkpt>
      <trkpt lat="49.32075" lon="-0.60075">
        <ele>61.142937</ele>
        <time>2026-05-16T09:51:43.795Z</time>
      </trkpt>
      <trkpt lat="49.32084" lon="-0.60079">
        <ele>61.380942</ele>
        <time>2026-05-16T09:51:52.794Z</time>
      </trkpt>
      <trkpt lat="49.32093" lon="-0.60083">
        <ele>61.629775</ele>
        <time>2026-05-16T09:52:01.797Z</time>
      </trkpt>
      <trkpt lat="49.32103" lon="-0.60086">
        <ele>61.881095</ele>
        <time>2026-05-16T09:52:09.774Z</time>
      </trkpt>
      <trkpt lat="49.32113" lon="-0.60089">
        <ele>62.139859</ele>
        <time>2026-05-16T09:52:19.784Z</time>
      </trkpt>
      <trkpt lat="49.32122" lon="-0.60092">
        <ele>62.374619</ele>
        <time>2026-05-16T09:52:28.796Z</time>
      </trkpt>
      <trkpt lat="49.32131" lon="-0.60095">
        <ele>62.611205</ele>
        <time>2026-05-16T09:52:40.804Z</time>
      </trkpt>
      <trkpt lat="49.3214" lon="-0.60096">
        <ele>62.862731</ele>
        <time>2026-05-16T09:52:52.775Z</time>
      </trkpt>
      <trkpt lat="49.3215" lon="-0.60099">
        <ele>63.113594</ele>
        <time>2026-05-16T09:53:01.795Z</time>
      </trkpt>
      <trkpt lat="49.3216" lon="-0.60102">
        <ele>63.371048</ele>
        <time>2026-05-16T09:53:10.797Z</time>
      </trkpt>
      <trkpt lat="49.32169" lon="-0.60105">
        <ele>63.614847</ele>
        <time>2026-05-16T09:53:19.784Z</time>
      </trkpt>
      <trkpt lat="49.32178" lon="-0.60107">
        <ele>63.848465</ele>
        <time>2026-05-16T09:53:28.793Z</time>
      </trkpt>
      <trkpt lat="49.32187" lon="-0.6011">
        <ele>64.096423</ele>
        <time>2026-05-16T09:53:37.796Z</time>
      </trkpt>
      <trkpt lat="49.32197" lon="-0.60113">
        <ele>64.341101</ele>
        <time>2026-05-16T09:53:46.792Z</time>
      </trkpt>
      <trkpt lat="49.32206" lon="-0.60114">
        <ele>64.569248</ele>
        <time>2026-05-16T09:53:55.801Z</time>
      </trkpt>
      <trkpt lat="49.32218" lon="-0.60116">
        <ele>64.868102</ele>
        <time>2026-05-16T09:54:50.800Z</time>
      </trkpt>
      <trkpt lat="49.32227" lon="-0.60119">
        <ele>65.092782</ele>
        <time>2026-05-16T09:54:59.796Z</time>
      </trkpt>
      <trkpt lat="49.32237" lon="-0.60121">
        <ele>65.345586</ele>
        <time>2026-05-16T09:55:07.791Z</time>
      </trkpt>
      <trkpt lat="49.32247" lon="-0.60125">
        <ele>65.599056</ele>
        <time>2026-05-16T09:55:15.796Z</time>
      </trkpt>
      <trkpt lat="49.32257" lon="-0.60128">
        <ele>65.84014</ele>
        <time>2026-05-16T09:55:23.795Z</time>
      </trkpt>
      <trkpt lat="49.32266" lon="-0.60132">
        <ele>66.081577</ele>
        <time>2026-05-16T09:55:31.795Z</time>
      </trkpt>
      <trkpt lat="49.32275" lon="-0.60137">
        <ele>66.319694</ele>
        <time>2026-05-16T09:55:40.796Z</time>
      </trkpt>
      <trkpt lat="49.32285" lon="-0.60141">
        <ele>66.568225</ele>
        <time>2026-05-16T09:55:49.793Z</time>
      </trkpt>
      <trkpt lat="49.32294" lon="-0.60146">
        <ele>66.802589</ele>
        <time>2026-05-16T09:55:58.796Z</time>
      </trkpt>
      <trkpt lat="49.32303" lon="-0.6015">
        <ele>67.036161</ele>
        <time>2026-05-16T09:56:07.811Z</time>
      </trkpt>
      <trkpt lat="49.32312" lon="-0.60155">
        <ele>67.263864</ele>
        <time>2026-05-16T09:56:16.799Z</time>
      </trkpt>
      <trkpt lat="49.3232" lon="-0.6016">
        <ele>67.492264</ele>
        <time>2026-05-16T09:56:25.794Z</time>
      </trkpt>
      <trkpt lat="49.32329" lon="-0.60165">
        <ele>67.730513</ele>
        <time>2026-05-16T09:56:34.797Z</time>
      </trkpt>
      <trkpt lat="49.32337" lon="-0.60171">
        <ele>67.954753</ele>
        <time>2026-05-16T09:56:43.794Z</time>
      </trkpt>
      <trkpt lat="49.32346" lon="-0.60177">
        <ele>68.186212</ele>
        <time>2026-05-16T09:56:53.803Z</time>
      </trkpt>
      <trkpt lat="49.32354" lon="-0.60183">
        <ele>68.411841</ele>
        <time>2026-05-16T09:57:02.796Z</time>
      </trkpt>
      <trkpt lat="49.32362" lon="-0.60191">
        <ele>68.391154</ele>
        <time>2026-05-16T09:57:11.792Z</time>
      </trkpt>
      <trkpt lat="49.3237" lon="-0.60199">
        <ele>68.340636</ele>
        <time>2026-05-16T09:57:19.795Z</time>
      </trkpt>
      <trkpt lat="49.32378" lon="-0.60206">
        <ele>68.287475</ele>
        <time>2026-05-16T09:57:28.795Z</time>
      </trkpt>
      <trkpt lat="49.32386" lon="-0.60214">
        <ele>68.234597</ele>
        <time>2026-05-16T09:57:38.795Z</time>
      </trkpt>
      <trkpt lat="49.32393" lon="-0.60224">
        <ele>68.181949</ele>
        <time>2026-05-16T09:57:48.800Z</time>
      </trkpt>
      <trkpt lat="49.324" lon="-0.60234">
        <ele>68.126167</ele>
        <time>2026-05-16T09:57:58.798Z</time>
      </trkpt>
      <trkpt lat="49.32407" lon="-0.60243">
        <ele>68.075421</ele>
        <time>2026-05-16T09:58:08.797Z</time>
      </trkpt>
      <trkpt lat="49.32415" lon="-0.60252">
        <ele>68.02108</ele>
        <time>2026-05-16T09:58:20.805Z</time>
      </trkpt>
      <trkpt lat="49.3242" lon="-0.60265">
        <ele>67.966561</ele>
        <time>2026-05-16T09:58:31.795Z</time>
      </trkpt>
      <trkpt lat="49.32426" lon="-0.60275">
        <ele>67.915815</ele>
        <time>2026-05-16T09:58:41.798Z</time>
      </trkpt>
      <trkpt lat="49.3243" lon="-0.60287">
        <ele>67.863604</ele>
        <time>2026-05-16T09:58:52.792Z</time>
      </trkpt>
      <trkpt lat="49.32436" lon="-0.60299">
        <ele>67.809924</ele>
        <time>2026-05-16T09:59:05.793Z</time>
      </trkpt>
      <trkpt lat="49.32442" lon="-0.60311">
        <ele>67.756872</ele>
        <time>2026-05-16T09:59:14.811Z</time>
      </trkpt>
      <trkpt lat="49.32447" lon="-0.60323">
        <ele>67.703554</ele>
        <time>2026-05-16T09:59:25.794Z</time>
      </trkpt>
      <trkpt lat="49.32452" lon="-0.60335">
        <ele>67.651798</ele>
        <time>2026-05-16T09:59:34.806Z</time>
      </trkpt>
      <trkpt lat="49.32459" lon="-0.60344">
        <ele>67.600055</ele>
        <time>2026-05-16T09:59:43.792Z</time>
      </trkpt>
      <trkpt lat="49.32467" lon="-0.60352">
        <ele>67.547956</ele>
        <time>2026-05-16T09:59:55.797Z</time>
      </trkpt>
      <trkpt lat="49.32476" lon="-0.60354">
        <ele>67.494961</ele>
        <time>2026-05-16T10:00:05.774Z</time>
      </trkpt>
      <trkpt lat="49.32486" lon="-0.60353">
        <ele>67.440538</ele>
        <time>2026-05-16T10:00:15.796Z</time>
      </trkpt>
      <trkpt lat="49.32496" lon="-0.60354">
        <ele>67.369597</ele>
        <time>2026-05-16T10:00:25.791Z</time>
      </trkpt>
      <trkpt lat="49.32505" lon="-0.60354">
        <ele>67.299176</ele>
        <time>2026-05-16T10:00:34.799Z</time>
      </trkpt>
      <trkpt lat="49.32515" lon="-0.60356">
        <ele>67.224647</ele>
        <time>2026-05-16T10:00:45.794Z</time>
      </trkpt>
      <trkpt lat="49.32524" lon="-0.60358">
        <ele>67.148732</ele>
        <time>2026-05-16T10:00:58.783Z</time>
      </trkpt>
      <trkpt lat="49.32534" lon="-0.6036">
        <ele>67.073573</ele>
        <time>2026-05-16T10:01:08.801Z</time>
      </trkpt>
      <trkpt lat="49.32543" lon="-0.60364">
        <ele>67.003364</ele>
        <time>2026-05-16T10:01:18.785Z</time>
      </trkpt>
      <trkpt lat="49.32552" lon="-0.60369">
        <ele>66.929189</ele>
        <time>2026-05-16T10:01:28.790Z</time>
      </trkpt>
      <trkpt lat="49.32561" lon="-0.60374">
        <ele>66.858106</ele>
        <time>2026-05-16T10:01:38.804Z</time>
      </trkpt>
      <trkpt lat="49.32569" lon="-0.60381">
        <ele>66.788859</ele>
        <time>2026-05-16T10:01:51.787Z</time>
      </trkpt>
      <trkpt lat="49.32577" lon="-0.60373">
        <ele>66.715538</ele>
        <time>2026-05-16T10:02:00.796Z</time>
      </trkpt>
      <trkpt lat="49.32584" lon="-0.60363">
        <ele>66.639916</ele>
        <time>2026-05-16T10:02:10.799Z</time>
      </trkpt>
      <trkpt lat="49.32592" lon="-0.60354">
        <ele>66.565558</ele>
        <time>2026-05-16T10:02:19.793Z</time>
      </trkpt>
      <trkpt lat="49.32599" lon="-0.60345">
        <ele>66.491429</ele>
        <time>2026-05-16T10:02:28.796Z</time>
      </trkpt>
      <trkpt lat="49.32607" lon="-0.60337">
        <ele>66.420847</ele>
        <time>2026-05-16T10:02:37.797Z</time>
      </trkpt>
      <trkpt lat="49.32615" lon="-0.60331">
        <ele>66.351983</ele>
        <time>2026-05-16T10:02:48.791Z</time>
      </trkpt>
      <trkpt lat="49.32628" lon="-0.60352">
        <ele>66.207383</ele>
        <time>2026-05-16T10:03:20.808Z</time>
      </trkpt>
      <trkpt lat="49.32637" lon="-0.60361">
        <ele>66.127302</ele>
        <time>2026-05-16T10:03:31.788Z</time>
      </trkpt>
      <trkpt lat="49.32645" lon="-0.60369">
        <ele>66.056887</ele>
        <time>2026-05-16T10:03:40.789Z</time>
      </trkpt>
      <trkpt lat="49.32654" lon="-0.60371">
        <ele>66.21692</ele>
        <time>2026-05-16T10:03:54.789Z</time>
      </trkpt>
      <trkpt lat="49.32663" lon="-0.60368">
        <ele>66.370644</ele>
        <time>2026-05-16T10:04:11.789Z</time>
      </trkpt>
      <trkpt lat="49.32672" lon="-0.60362">
        <ele>66.526182</ele>
        <time>2026-05-16T10:04:20.791Z</time>
      </trkpt>
      <trkpt lat="49.32681" lon="-0.6036">
        <ele>66.679489</ele>
        <time>2026-05-16T10:04:29.784Z</time>
      </trkpt>
      <trkpt lat="49.3269" lon="-0.60355">
        <ele>66.841545</ele>
        <time>2026-05-16T10:04:39.771Z</time>
      </trkpt>
      <trkpt lat="49.32699" lon="-0.60353">
        <ele>67.001844</ele>
        <time>2026-05-16T10:04:49.774Z</time>
      </trkpt>
      <trkpt lat="49.32709" lon="-0.60348">
        <ele>67.165173</ele>
        <time>2026-05-16T10:04:58.780Z</time>
      </trkpt>
      <trkpt lat="49.32716" lon="-0.6034">
        <ele>67.319633</ele>
        <time>2026-05-16T10:05:08.775Z</time>
      </trkpt>
      <trkpt lat="49.32724" lon="-0.60331">
        <ele>67.485712</ele>
        <time>2026-05-16T10:05:18.798Z</time>
      </trkpt>
      <trkpt lat="49.32731" lon="-0.60321">
        <ele>67.643786</ele>
        <time>2026-05-16T10:05:28.795Z</time>
      </trkpt>
      <trkpt lat="49.32738" lon="-0.60312">
        <ele>67.803024</ele>
        <time>2026-05-16T10:05:37.785Z</time>
      </trkpt>
      <trkpt lat="49.32747" lon="-0.60306">
        <ele>67.962658</ele>
        <time>2026-05-16T10:05:47.784Z</time>
      </trkpt>
      <trkpt lat="49.32757" lon="-0.60307">
        <ele>68.124397</ele>
        <time>2026-05-16T10:05:56.797Z</time>
      </trkpt>
      <trkpt lat="49.32764" lon="-0.60316">
        <ele>68.284865</ele>
        <time>2026-05-16T10:06:08.793Z</time>
      </trkpt>
      <trkpt lat="49.32774" lon="-0.60318">
        <ele>68.447312</ele>
        <time>2026-05-16T10:06:18.796Z</time>
      </trkpt>
      <trkpt lat="49.32782" lon="-0.6033">
        <ele>68.635345</ele>
        <time>2026-05-16T10:06:42.815Z</time>
      </trkpt>
      <trkpt lat="49.32791" lon="-0.60335">
        <ele>68.795173</ele>
        <time>2026-05-16T10:06:53.797Z</time>
      </trkpt>
      <trkpt lat="49.32799" lon="-0.60341">
        <ele>68.947579</ele>
        <time>2026-05-16T10:07:02.798Z</time>
      </trkpt>
      <trkpt lat="49.32808" lon="-0.60348">
        <ele>69.118002</ele>
        <time>2026-05-16T10:07:11.793Z</time>
      </trkpt>
      <trkpt lat="49.32816" lon="-0.60354">
        <ele>69.33131</ele>
        <time>2026-05-16T10:07:19.792Z</time>
      </trkpt>
      <trkpt lat="49.32824" lon="-0.6036">
        <ele>69.546715</ele>
        <time>2026-05-16T10:07:28.808Z</time>
      </trkpt>
      <trkpt lat="49.32833" lon="-0.60367">
        <ele>69.774167</ele>
        <time>2026-05-16T10:07:44.793Z</time>
      </trkpt>
      <trkpt lat="49.32842" lon="-0.6037">
        <ele>69.991169</ele>
        <time>2026-05-16T10:07:55.793Z</time>
      </trkpt>
      <trkpt lat="49.32843" lon="-0.60384">
        <ele>70.203997</ele>
        <time>2026-05-16T10:08:13.793Z</time>
      </trkpt>
      <trkpt lat="49.32834" lon="-0.60391">
        <ele>70.431031</ele>
        <time>2026-05-16T10:08:24.795Z</time>
      </trkpt>
      <trkpt lat="49.32827" lon="-0.60402">
        <ele>70.662654</ele>
        <time>2026-05-16T10:08:33.799Z</time>
      </trkpt>
      <trkpt lat="49.3282" lon="-0.60412">
        <ele>70.895342</ele>
        <time>2026-05-16T10:08:42.798Z</time>
      </trkpt>
      <trkpt lat="49.32812" lon="-0.60421">
        <ele>71.120236</ele>
        <time>2026-05-16T10:08:51.795Z</time>
      </trkpt>
      <trkpt lat="49.32804" lon="-0.60428">
        <ele>71.344194</ele>
        <time>2026-05-16T10:09:00.793Z</time>
      </trkpt>
      <trkpt lat="49.32795" lon="-0.60432">
        <ele>71.577283</ele>
        <time>2026-05-16T10:09:09.789Z</time>
      </trkpt>
      <trkpt lat="49.32785" lon="-0.60436">
        <ele>71.811696</ele>
        <time>2026-05-16T10:09:18.797Z</time>
      </trkpt>
      <trkpt lat="49.32776" lon="-0.6044">
        <ele>72.022408</ele>
        <time>2026-05-16T10:09:27.796Z</time>
      </trkpt>
      <trkpt lat="49.32767" lon="-0.60446">
        <ele>72.24894</ele>
        <time>2026-05-16T10:09:37.773Z</time>
      </trkpt>
      <trkpt lat="49.32759" lon="-0.60453">
        <ele>72.471313</ele>
        <time>2026-05-16T10:09:46.805Z</time>
      </trkpt>
      <trkpt lat="49.32751" lon="-0.6046">
        <ele>72.692745</ele>
        <time>2026-05-16T10:09:55.794Z</time>
      </trkpt>
      <trkpt lat="49.32743" lon="-0.60469">
        <ele>72.929097</ele>
        <time>2026-05-16T10:10:04.812Z</time>
      </trkpt>
      <trkpt lat="49.32736" lon="-0.60479">
        <ele>73.156249</ele>
        <time>2026-05-16T10:10:12.788Z</time>
      </trkpt>
      <trkpt lat="49.32729" lon="-0.60489">
        <ele>73.696729</ele>
        <time>2026-05-16T10:10:21.780Z</time>
      </trkpt>
      <trkpt lat="49.32721" lon="-0.60498">
        <ele>74.811317</ele>
        <time>2026-05-16T10:10:30.778Z</time>
      </trkpt>
      <trkpt lat="49.32713" lon="-0.60506">
        <ele>75.981539</ele>
        <time>2026-05-16T10:10:40.768Z</time>
      </trkpt>
      <trkpt lat="49.32706" lon="-0.60516">
        <ele>77.15434</ele>
        <time>2026-05-16T10:10:50.782Z</time>
      </trkpt>
      <trkpt lat="49.32701" lon="-0.60529">
        <ele>78.315418</ele>
        <time>2026-05-16T10:11:03.773Z</time>
      </trkpt>
      <trkpt lat="49.32703" lon="-0.60544">
        <ele>79.465669</ele>
        <time>2026-05-16T10:11:14.789Z</time>
      </trkpt>
      <trkpt lat="49.32706" lon="-0.60558">
        <ele>80.616931</ele>
        <time>2026-05-16T10:11:26.792Z</time>
      </trkpt>
      <trkpt lat="49.32708" lon="-0.60572">
        <ele>81.780104</ele>
        <time>2026-05-16T10:11:37.792Z</time>
      </trkpt>
      <trkpt lat="49.3271" lon="-0.60586">
        <ele>82.891051</ele>
        <time>2026-05-16T10:11:48.788Z</time>
      </trkpt>
      <trkpt lat="49.32714" lon="-0.60599">
        <ele>83.979936</ele>
        <time>2026-05-16T10:12:04.799Z</time>
      </trkpt>
      <trkpt lat="49.32718" lon="-0.60612">
        <ele>85.085444</ele>
        <time>2026-05-16T10:12:17.786Z</time>
      </trkpt>
      <trkpt lat="49.32719" lon="-0.60627">
        <ele>86.253025</ele>
        <time>2026-05-16T10:12:29.791Z</time>
      </trkpt>
      <trkpt lat="49.32723" lon="-0.6064">
        <ele>87.356295</ele>
        <time>2026-05-16T10:12:42.805Z</time>
      </trkpt>
      <trkpt lat="49.32729" lon="-0.60667">
        <ele>89.561108</ele>
        <time>2026-05-16T10:14:04.791Z</time>
      </trkpt>
      <trkpt lat="49.3273" lon="-0.60683">
        <ele>90.777716</ele>
        <time>2026-05-16T10:14:12.793Z</time>
      </trkpt>
      <trkpt lat="49.32733" lon="-0.60696">
        <ele>91.839208</ele>
        <time>2026-05-16T10:14:26.797Z</time>
      </trkpt>
      <trkpt lat="49.32736" lon="-0.6071">
        <ele>93.023564</ele>
        <time>2026-05-16T10:14:43.009Z</time>
      </trkpt>
      <trkpt lat="49.32739" lon="-0.60724">
        <ele>94.11456</ele>
        <time>2026-05-16T10:14:57.785Z</time>
      </trkpt>
      <trkpt lat="49.32742" lon="-0.60737">
        <ele>94.812038</ele>
        <time>2026-05-16T10:15:14.786Z</time>
      </trkpt>
      <trkpt lat="49.32738" lon="-0.60749">
        <ele>95.169505</ele>
        <time>2026-05-16T10:15:27.779Z</time>
      </trkpt>
      <trkpt lat="49.32736" lon="-0.60763">
        <ele>95.538071</ele>
        <time>2026-05-16T10:15:41.798Z</time>
      </trkpt>
      <trkpt lat="49.32733" lon="-0.60777">
        <ele>95.900268</ele>
        <time>2026-05-16T10:15:53.792Z</time>
      </trkpt>
      <trkpt lat="49.32744" lon="-0.60796">
        <ele>96.54412</ele>
        <time>2026-05-16T10:16:46.779Z</time>
      </trkpt>
      <trkpt lat="49.32747" lon="-0.60814">
        <ele>97.024934</ele>
        <time>2026-05-16T10:17:32.795Z</time>
      </trkpt>
      <trkpt lat="49.32738" lon="-0.60823">
        <ele>97.449978</ele>
        <time>2026-05-16T10:20:39.799Z</time>
      </trkpt>
      <trkpt lat="49.3273" lon="-0.6083">
        <ele>97.816587</ele>
        <time>2026-05-16T10:20:49.781Z</time>
      </trkpt>
      <trkpt lat="49.32721" lon="-0.60839">
        <ele>98.258365</ele>
        <time>2026-05-16T10:22:09.788Z</time>
      </trkpt>
      <trkpt lat="49.32713" lon="-0.60848">
        <ele>98.633486</ele>
        <time>2026-05-16T10:22:19.777Z</time>
      </trkpt>
      <trkpt lat="49.32705" lon="-0.60857">
        <ele>99.014773</ele>
        <time>2026-05-16T10:22:29.789Z</time>
      </trkpt>
      <trkpt lat="49.32696" lon="-0.60864">
        <ele>99.411221</ele>
        <time>2026-05-16T10:22:39.785Z</time>
      </trkpt>
      <trkpt lat="49.32688" lon="-0.60871">
        <ele>99.787721</ele>
        <time>2026-05-16T10:22:49.773Z</time>
      </trkpt>
      <trkpt lat="49.3268" lon="-0.60879">
        <ele>100.161338</ele>
        <time>2026-05-16T10:22:59.787Z</time>
      </trkpt>
      <trkpt lat="49.32672" lon="-0.60887">
        <ele>100.5286</ele>
        <time>2026-05-16T10:23:08.795Z</time>
      </trkpt>
      <trkpt lat="49.32665" lon="-0.60896">
        <ele>100.905168</ele>
        <time>2026-05-16T10:23:18.792Z</time>
      </trkpt>
      <trkpt lat="49.32657" lon="-0.60904">
        <ele>101.291194</ele>
        <time>2026-05-16T10:23:28.795Z</time>
      </trkpt>
      <trkpt lat="49.3265" lon="-0.60914">
        <ele>101.650126</ele>
        <time>2026-05-16T10:23:36.793Z</time>
      </trkpt>
      <trkpt lat="49.32643" lon="-0.60925">
        <ele>101.748343</ele>
        <time>2026-05-16T10:23:45.797Z</time>
      </trkpt>
      <trkpt lat="49.32636" lon="-0.60934">
        <ele>101.792952</ele>
        <time>2026-05-16T10:23:54.794Z</time>
      </trkpt>
      <trkpt lat="49.3263" lon="-0.60946">
        <ele>101.840567</ele>
        <time>2026-05-16T10:24:03.797Z</time>
      </trkpt>
      <trkpt lat="49.32625" lon="-0.60958">
        <ele>101.885748</ele>
        <time>2026-05-16T10:24:12.795Z</time>
      </trkpt>
      <trkpt lat="49.32619" lon="-0.60969">
        <ele>101.932351</ele>
        <time>2026-05-16T10:24:21.798Z</time>
      </trkpt>
      <trkpt lat="49.32613" lon="-0.6098">
        <ele>101.978187</ele>
        <time>2026-05-16T10:24:31.795Z</time>
      </trkpt>
      <trkpt lat="49.32606" lon="-0.6099">
        <ele>102.023782</ele>
        <time>2026-05-16T10:24:48.798Z</time>
      </trkpt>
      <trkpt lat="49.326" lon="-0.61002">
        <ele>102.071584</ele>
        <time>2026-05-16T10:25:02.793Z</time>
      </trkpt>
      <trkpt lat="49.32595" lon="-0.61014">
        <ele>102.119434</ele>
        <time>2026-05-16T10:25:13.796Z</time>
      </trkpt>
      <trkpt lat="49.32589" lon="-0.61026">
        <ele>102.16411</ele>
        <time>2026-05-16T10:25:22.799Z</time>
      </trkpt>
      <trkpt lat="49.32584" lon="-0.61038">
        <ele>102.212834</ele>
        <time>2026-05-16T10:25:32.789Z</time>
      </trkpt>
      <trkpt lat="49.32578" lon="-0.61049">
        <ele>102.258054</ele>
        <time>2026-05-16T10:25:42.791Z</time>
      </trkpt>
      <trkpt lat="49.32573" lon="-0.61061">
        <ele>102.303599</ele>
        <time>2026-05-16T10:25:52.792Z</time>
      </trkpt>
      <trkpt lat="49.32566" lon="-0.61072">
        <ele>102.349755</ele>
        <time>2026-05-16T10:26:01.785Z</time>
      </trkpt>
      <trkpt lat="49.32563" lon="-0.61085">
        <ele>102.395586</ele>
        <time>2026-05-16T10:26:09.799Z</time>
      </trkpt>
      <trkpt lat="49.32559" lon="-0.61098">
        <ele>102.440588</ele>
        <time>2026-05-16T10:26:18.793Z</time>
      </trkpt>
      <trkpt lat="49.32554" lon="-0.6111">
        <ele>102.485173</ele>
        <time>2026-05-16T10:26:27.795Z</time>
      </trkpt>
      <trkpt lat="49.32547" lon="-0.6113">
        <ele>102.559066</ele>
        <time>2026-05-16T10:27:03.796Z</time>
      </trkpt>
      <trkpt lat="49.32542" lon="-0.61142">
        <ele>102.574397</ele>
        <time>2026-05-16T10:27:12.777Z</time>
      </trkpt>
      <trkpt lat="49.32537" lon="-0.61155">
        <ele>102.546225</ele>
        <time>2026-05-16T10:27:21.795Z</time>
      </trkpt>
      <trkpt lat="49.32532" lon="-0.61168">
        <ele>102.51684</ele>
        <time>2026-05-16T10:27:31.792Z</time>
      </trkpt>
      <trkpt lat="49.32527" lon="-0.61179">
        <ele>102.490357</ele>
        <time>2026-05-16T10:27:40.793Z</time>
      </trkpt>
      <trkpt lat="49.32523" lon="-0.61192">
        <ele>102.462688</ele>
        <time>2026-05-16T10:27:49.795Z</time>
      </trkpt>
      <trkpt lat="49.32518" lon="-0.61204">
        <ele>102.435471</ele>
        <time>2026-05-16T10:27:58.792Z</time>
      </trkpt>
      <trkpt lat="49.32515" lon="-0.61219">
        <ele>102.40658</ele>
        <time>2026-05-16T10:28:10.792Z</time>
      </trkpt>
      <trkpt lat="49.32511" lon="-0.61232">
        <ele>102.378686</ele>
        <time>2026-05-16T10:28:19.801Z</time>
      </trkpt>
      <trkpt lat="49.32507" lon="-0.61245">
        <ele>102.351094</ele>
        <time>2026-05-16T10:28:28.795Z</time>
      </trkpt>
      <trkpt lat="49.32502" lon="-0.61258">
        <ele>102.323114</ele>
        <time>2026-05-16T10:28:37.787Z</time>
      </trkpt>
      <trkpt lat="49.32498" lon="-0.6127">
        <ele>102.296277</ele>
        <time>2026-05-16T10:28:46.798Z</time>
      </trkpt>
      <trkpt lat="49.32493" lon="-0.61282">
        <ele>102.26977</ele>
        <time>2026-05-16T10:28:55.789Z</time>
      </trkpt>
      <trkpt lat="49.32489" lon="-0.61294">
        <ele>102.243263</ele>
        <time>2026-05-16T10:29:04.794Z</time>
      </trkpt>
      <trkpt lat="49.32485" lon="-0.61307">
        <ele>102.216316</ele>
        <time>2026-05-16T10:29:14.799Z</time>
      </trkpt>
      <trkpt lat="49.32481" lon="-0.6132">
        <ele>102.189121</ele>
        <time>2026-05-16T10:29:24.799Z</time>
      </trkpt>
      <trkpt lat="49.32477" lon="-0.61333">
        <ele>102.160781</ele>
        <time>2026-05-16T10:29:35.791Z</time>
      </trkpt>
      <trkpt lat="49.32477" lon="-0.61347">
        <ele>102.132803</ele>
        <time>2026-05-16T10:29:41.805Z</time>
      </trkpt>
      <trkpt lat="49.3247" lon="-0.61358">
        <ele>102.104308</ele>
        <time>2026-05-16T10:29:58.777Z</time>
      </trkpt>
      <trkpt lat="49.32463" lon="-0.61366">
        <ele>102.077137</ele>
        <time>2026-05-16T10:30:08.789Z</time>
      </trkpt>
      <trkpt lat="49.32458" lon="-0.6138">
        <ele>102.067636</ele>
        <time>2026-05-16T10:30:18.787Z</time>
      </trkpt>
      <trkpt lat="49.32454" lon="-0.61392">
        <ele>102.103804</ele>
        <time>2026-05-16T10:30:29.783Z</time>
      </trkpt>
      <trkpt lat="49.32451" lon="-0.61405">
        <ele>102.139407</ele>
        <time>2026-05-16T10:30:39.789Z</time>
      </trkpt>
      <trkpt lat="49.32446" lon="-0.61418">
        <ele>102.176618</ele>
        <time>2026-05-16T10:30:50.769Z</time>
      </trkpt>
      <trkpt lat="49.32442" lon="-0.61431">
        <ele>102.21245</ele>
        <time>2026-05-16T10:31:00.787Z</time>
      </trkpt>
      <trkpt lat="49.32438" lon="-0.61444">
        <ele>102.249918</ele>
        <time>2026-05-16T10:31:09.768Z</time>
      </trkpt>
      <trkpt lat="49.32434" lon="-0.61457">
        <ele>102.286381</ele>
        <time>2026-05-16T10:31:18.784Z</time>
      </trkpt>
      <trkpt lat="49.3243" lon="-0.6147">
        <ele>102.323814</ele>
        <time>2026-05-16T10:31:29.784Z</time>
      </trkpt>
      <trkpt lat="49.32425" lon="-0.61483">
        <ele>102.362045</ele>
        <time>2026-05-16T10:31:39.792Z</time>
      </trkpt>
      <trkpt lat="49.32421" lon="-0.61495">
        <ele>102.397956</ele>
        <time>2026-05-16T10:31:49.800Z</time>
      </trkpt>
      <trkpt lat="49.32416" lon="-0.61508">
        <ele>102.434922</ele>
        <time>2026-05-16T10:31:59.792Z</time>
      </trkpt>
      <trkpt lat="49.3241" lon="-0.61521">
        <ele>102.474682</ele>
        <time>2026-05-16T10:32:09.809Z</time>
      </trkpt>
      <trkpt lat="49.32403" lon="-0.61531">
        <ele>102.513339</ele>
        <time>2026-05-16T10:32:17.796Z</time>
      </trkpt>
      <trkpt lat="49.324" lon="-0.61545">
        <ele>102.549563</ele>
        <time>2026-05-16T10:32:26.790Z</time>
      </trkpt>
      <trkpt lat="49.32395" lon="-0.61557">
        <ele>102.586139</ele>
        <time>2026-05-16T10:32:36.792Z</time>
      </trkpt>
      <trkpt lat="49.32392" lon="-0.61571">
        <ele>102.624054</ele>
        <time>2026-05-16T10:32:46.797Z</time>
      </trkpt>
      <trkpt lat="49.32386" lon="-0.61582">
        <ele>102.662149</ele>
        <time>2026-05-16T10:32:56.793Z</time>
      </trkpt>
      <trkpt lat="49.32379" lon="-0.61593">
        <ele>102.699772</ele>
        <time>2026-05-16T10:33:05.790Z</time>
      </trkpt>
      <trkpt lat="49.32373" lon="-0.61605">
        <ele>102.73851</ele>
        <time>2026-05-16T10:33:15.791Z</time>
      </trkpt>
      <trkpt lat="49.32367" lon="-0.61616">
        <ele>102.79885</ele>
        <time>2026-05-16T10:33:24.790Z</time>
      </trkpt>
      <trkpt lat="49.32361" lon="-0.61627">
        <ele>102.895299</ele>
        <time>2026-05-16T10:33:33.797Z</time>
      </trkpt>
      <trkpt lat="49.32355" lon="-0.61638">
        <ele>102.987051</ele>
        <time>2026-05-16T10:33:42.793Z</time>
      </trkpt>
      <trkpt lat="49.32349" lon="-0.6165">
        <ele>103.080117</ele>
        <time>2026-05-16T10:33:52.789Z</time>
      </trkpt>
      <trkpt lat="49.32343" lon="-0.61661">
        <ele>103.168974</ele>
        <time>2026-05-16T10:34:01.791Z</time>
      </trkpt>
      <trkpt lat="49.32336" lon="-0.6167">
        <ele>103.262936</ele>
        <time>2026-05-16T10:34:12.795Z</time>
      </trkpt>
      <trkpt lat="49.32331" lon="-0.61682">
        <ele>103.353482</ele>
        <time>2026-05-16T10:34:23.784Z</time>
      </trkpt>
      <trkpt lat="49.32325" lon="-0.61694">
        <ele>103.450584</ele>
        <time>2026-05-16T10:34:34.791Z</time>
      </trkpt>
      <trkpt lat="49.32318" lon="-0.61706">
        <ele>103.548516</ele>
        <time>2026-05-16T10:34:45.790Z</time>
      </trkpt>
      <trkpt lat="49.32313" lon="-0.61717">
        <ele>103.638906</ele>
        <time>2026-05-16T10:34:54.792Z</time>
      </trkpt>
      <trkpt lat="49.32307" lon="-0.61727">
        <ele>103.729593</ele>
        <time>2026-05-16T10:35:04.789Z</time>
      </trkpt>
      <trkpt lat="49.323" lon="-0.61738">
        <ele>103.822328</ele>
        <time>2026-05-16T10:35:22.785Z</time>
      </trkpt>
      <trkpt lat="49.32297" lon="-0.61752">
        <ele>103.917648</ele>
        <time>2026-05-16T10:35:32.788Z</time>
      </trkpt>
      <trkpt lat="49.32294" lon="-0.61766">
        <ele>104.015624</ele>
        <time>2026-05-16T10:35:42.789Z</time>
      </trkpt>
      <trkpt lat="49.32291" lon="-0.61779">
        <ele>104.105377</ele>
        <time>2026-05-16T10:35:51.784Z</time>
      </trkpt>
      <trkpt lat="49.32288" lon="-0.61793">
        <ele>104.19832</ele>
        <time>2026-05-16T10:36:00.807Z</time>
      </trkpt>
      <trkpt lat="49.32285" lon="-0.61807">
        <ele>104.289894</ele>
        <time>2026-05-16T10:36:09.792Z</time>
      </trkpt>
      <trkpt lat="49.32283" lon="-0.61821">
        <ele>104.385211</ele>
        <time>2026-05-16T10:36:19.792Z</time>
      </trkpt>
      <trkpt lat="49.3228" lon="-0.61836">
        <ele>104.484109</ele>
        <time>2026-05-16T10:36:29.790Z</time>
      </trkpt>
      <trkpt lat="49.32277" lon="-0.6185">
        <ele>104.530849</ele>
        <time>2026-05-16T10:36:39.797Z</time>
      </trkpt>
      <trkpt lat="49.32274" lon="-0.61864">
        <ele>104.529567</ele>
        <time>2026-05-16T10:36:48.802Z</time>
      </trkpt>
      <trkpt lat="49.32271" lon="-0.61878">
        <ele>104.528178</ele>
        <time>2026-05-16T10:36:58.785Z</time>
      </trkpt>
      <trkpt lat="49.32267" lon="-0.61891">
        <ele>104.526888</ele>
        <time>2026-05-16T10:37:07.792Z</time>
      </trkpt>
      <trkpt lat="49.32262" lon="-0.61904">
        <ele>104.525522</ele>
        <time>2026-05-16T10:37:17.791Z</time>
      </trkpt>
      <trkpt lat="49.32257" lon="-0.61916">
        <ele>104.524179</ele>
        <time>2026-05-16T10:37:27.796Z</time>
      </trkpt>
      <trkpt lat="49.32253" lon="-0.61929">
        <ele>104.522863</ele>
        <time>2026-05-16T10:37:37.797Z</time>
      </trkpt>
      <trkpt lat="49.32249" lon="-0.61942">
        <ele>104.521598</ele>
        <time>2026-05-16T10:37:47.787Z</time>
      </trkpt>
      <trkpt lat="49.32244" lon="-0.61954">
        <ele>104.520279</ele>
        <time>2026-05-16T10:37:57.794Z</time>
      </trkpt>
      <trkpt lat="49.32239" lon="-0.61967">
        <ele>104.51889</ele>
        <time>2026-05-16T10:38:07.790Z</time>
      </trkpt>
      <trkpt lat="49.32235" lon="-0.61981">
        <ele>104.517499</ele>
        <time>2026-05-16T10:38:17.790Z</time>
      </trkpt>
      <trkpt lat="49.32229" lon="-0.61992">
        <ele>104.516233</ele>
        <time>2026-05-16T10:38:26.796Z</time>
      </trkpt>
      <trkpt lat="49.32227" lon="-0.62006">
        <ele>104.51496</ele>
        <time>2026-05-16T10:38:37.799Z</time>
      </trkpt>
      <trkpt lat="49.3222" lon="-0.62017">
        <ele>104.513583</ele>
        <time>2026-05-16T10:38:47.794Z</time>
      </trkpt>
      <trkpt lat="49.32214" lon="-0.62027">
        <ele>104.512272</ele>
        <time>2026-05-16T10:38:55.771Z</time>
      </trkpt>
      <trkpt lat="49.32207" lon="-0.62039">
        <ele>104.510884</ele>
        <time>2026-05-16T10:39:05.786Z</time>
      </trkpt>
      <trkpt lat="49.322" lon="-0.62049">
        <ele>104.509505</ele>
        <time>2026-05-16T10:39:18.790Z</time>
      </trkpt>
      <trkpt lat="49.32194" lon="-0.6206">
        <ele>104.508237</ele>
        <time>2026-05-16T10:39:29.781Z</time>
      </trkpt>
      <trkpt lat="49.3219" lon="-0.62072">
        <ele>104.506923</ele>
        <time>2026-05-16T10:39:40.789Z</time>
      </trkpt>
      <trkpt lat="49.32183" lon="-0.62082">
        <ele>104.475284</ele>
        <time>2026-05-16T10:39:52.783Z</time>
      </trkpt>
      <trkpt lat="49.32179" lon="-0.62095">
        <ele>104.420485</ele>
        <time>2026-05-16T10:40:05.785Z</time>
      </trkpt>
      <trkpt lat="49.32172" lon="-0.62106">
        <ele>104.364662</ele>
        <time>2026-05-16T10:40:15.792Z</time>
      </trkpt>
      <trkpt lat="49.32167" lon="-0.62119">
        <ele>104.310011</ele>
        <time>2026-05-16T10:40:24.793Z</time>
      </trkpt>
      <trkpt lat="49.32157" lon="-0.62139">
        <ele>104.220902</ele>
        <time>2026-05-16T10:40:56.800Z</time>
      </trkpt>
      <trkpt lat="49.32153" lon="-0.62151">
        <ele>104.16868</ele>
        <time>2026-05-16T10:41:05.792Z</time>
      </trkpt>
      <trkpt lat="49.32146" lon="-0.62162">
        <ele>104.114743</ele>
        <time>2026-05-16T10:41:14.793Z</time>
      </trkpt>
      <trkpt lat="49.3214" lon="-0.62174">
        <ele>104.057945</ele>
        <time>2026-05-16T10:41:23.793Z</time>
      </trkpt>
      <trkpt lat="49.32134" lon="-0.62186">
        <ele>104.002275</ele>
        <time>2026-05-16T10:41:33.805Z</time>
      </trkpt>
      <trkpt lat="49.32127" lon="-0.62196">
        <ele>103.949056</ele>
        <time>2026-05-16T10:41:44.791Z</time>
      </trkpt>
      <trkpt lat="49.3212" lon="-0.62207">
        <ele>103.893758</ele>
        <time>2026-05-16T10:41:54.795Z</time>
      </trkpt>
      <trkpt lat="49.32115" lon="-0.62219">
        <ele>103.840941</ele>
        <time>2026-05-16T10:42:03.796Z</time>
      </trkpt>
      <trkpt lat="49.32108" lon="-0.62229">
        <ele>103.788487</ele>
        <time>2026-05-16T10:42:12.779Z</time>
      </trkpt>
      <trkpt lat="49.32101" lon="-0.62238">
        <ele>103.733805</ele>
        <time>2026-05-16T10:42:25.797Z</time>
      </trkpt>
      <trkpt lat="49.32094" lon="-0.62249">
        <ele>103.678777</ele>
        <time>2026-05-16T10:42:35.790Z</time>
      </trkpt>
      <trkpt lat="49.32088" lon="-0.62262">
        <ele>103.623516</ele>
        <time>2026-05-16T10:42:46.790Z</time>
      </trkpt>
      <trkpt lat="49.32082" lon="-0.62272">
        <ele>103.569795</ele>
        <time>2026-05-16T10:42:55.795Z</time>
      </trkpt>
      <trkpt lat="49.32075" lon="-0.62282">
        <ele>103.516327</ele>
        <time>2026-05-16T10:43:05.788Z</time>
      </trkpt>
      <trkpt lat="49.32069" lon="-0.62294">
        <ele>103.507861</ele>
        <time>2026-05-16T10:43:15.789Z</time>
      </trkpt>
      <trkpt lat="49.32062" lon="-0.62303">
        <ele>103.527599</ele>
        <time>2026-05-16T10:43:25.794Z</time>
      </trkpt>
      <trkpt lat="49.32057" lon="-0.62315">
        <ele>103.547804</ele>
        <time>2026-05-16T10:43:36.795Z</time>
      </trkpt>
      <trkpt lat="49.32051" lon="-0.62326">
        <ele>103.56883</ele>
        <time>2026-05-16T10:43:46.797Z</time>
      </trkpt>
      <trkpt lat="49.32044" lon="-0.62338">
        <ele>103.590176</ele>
        <time>2026-05-16T10:43:56.792Z</time>
      </trkpt>
      <trkpt lat="49.32039" lon="-0.6235">
        <ele>103.610981</ele>
        <time>2026-05-16T10:44:07.794Z</time>
      </trkpt>
      <trkpt lat="49.32032" lon="-0.62359">
        <ele>103.631487</ele>
        <time>2026-05-16T10:44:20.796Z</time>
      </trkpt>
      <trkpt lat="49.32026" lon="-0.62371">
        <ele>103.652068</ele>
        <time>2026-05-16T10:44:30.796Z</time>
      </trkpt>
      <trkpt lat="49.32021" lon="-0.62383">
        <ele>103.672663</ele>
        <time>2026-05-16T10:44:40.769Z</time>
      </trkpt>
      <trkpt lat="49.32015" lon="-0.62395">
        <ele>103.693585</ele>
        <time>2026-05-16T10:44:50.794Z</time>
      </trkpt>
      <trkpt lat="49.3201" lon="-0.62407">
        <ele>103.714573</ele>
        <time>2026-05-16T10:45:00.779Z</time>
      </trkpt>
      <trkpt lat="49.32004" lon="-0.62418">
        <ele>103.734939</ele>
        <time>2026-05-16T10:45:10.794Z</time>
      </trkpt>
      <trkpt lat="49.32" lon="-0.62431">
        <ele>103.755017</ele>
        <time>2026-05-16T10:45:23.799Z</time>
      </trkpt>
      <trkpt lat="49.31993" lon="-0.62441">
        <ele>103.775665</ele>
        <time>2026-05-16T10:45:33.806Z</time>
      </trkpt>
      <trkpt lat="49.31988" lon="-0.62453">
        <ele>103.795532</ele>
        <time>2026-05-16T10:47:12.793Z</time>
      </trkpt>
      <trkpt lat="49.31982" lon="-0.62464">
        <ele>103.815991</ele>
        <time>2026-05-16T10:47:21.795Z</time>
      </trkpt>
      <trkpt lat="49.31976" lon="-0.62475">
        <ele>103.836621</ele>
        <time>2026-05-16T10:47:30.796Z</time>
      </trkpt>
      <trkpt lat="49.3197" lon="-0.62486">
        <ele>103.857111</ele>
        <time>2026-05-16T10:47:40.792Z</time>
      </trkpt>
      <trkpt lat="49.31965" lon="-0.62498">
        <ele>103.877556</ele>
        <time>2026-05-16T10:47:50.792Z</time>
      </trkpt>
      <trkpt lat="49.31959" lon="-0.6251">
        <ele>103.845733</ele>
        <time>2026-05-16T10:47:59.792Z</time>
      </trkpt>
      <trkpt lat="49.31953" lon="-0.6252">
        <ele>103.762181</ele>
        <time>2026-05-16T10:48:09.792Z</time>
      </trkpt>
      <trkpt lat="49.31948" lon="-0.62532">
        <ele>103.685811</ele>
        <time>2026-05-16T10:48:19.795Z</time>
      </trkpt>
      <trkpt lat="49.31942" lon="-0.62543">
        <ele>103.608173</ele>
        <time>2026-05-16T10:48:28.795Z</time>
      </trkpt>
      <trkpt lat="49.31936" lon="-0.62554">
        <ele>103.53171</ele>
        <time>2026-05-16T10:48:38.793Z</time>
      </trkpt>
      <trkpt lat="49.3193" lon="-0.62565">
        <ele>103.449894</ele>
        <time>2026-05-16T10:48:49.796Z</time>
      </trkpt>
      <trkpt lat="49.31925" lon="-0.62577">
        <ele>103.369697</ele>
        <time>2026-05-16T10:49:00.793Z</time>
      </trkpt>
      <trkpt lat="49.31918" lon="-0.62588">
        <ele>103.288092</ele>
        <time>2026-05-16T10:49:10.793Z</time>
      </trkpt>
      <trkpt lat="49.31913" lon="-0.626">
        <ele>103.208192</ele>
        <time>2026-05-16T10:49:20.791Z</time>
      </trkpt>
      <trkpt lat="49.31906" lon="-0.62611">
        <ele>103.127978</ele>
        <time>2026-05-16T10:49:30.797Z</time>
      </trkpt>
      <trkpt lat="49.31901" lon="-0.62622">
        <ele>103.049273</ele>
        <time>2026-05-16T10:49:40.780Z</time>
      </trkpt>
      <trkpt lat="49.31895" lon="-0.62632">
        <ele>102.972386</ele>
        <time>2026-05-16T10:49:49.800Z</time>
      </trkpt>
      <trkpt lat="49.31889" lon="-0.62644">
        <ele>102.890397</ele>
        <time>2026-05-16T10:49:59.794Z</time>
      </trkpt>
      <trkpt lat="49.31883" lon="-0.62654">
        <ele>102.814064</ele>
        <time>2026-05-16T10:50:08.791Z</time>
      </trkpt>
      <trkpt lat="49.31876" lon="-0.62664">
        <ele>102.735043</ele>
        <time>2026-05-16T10:50:18.796Z</time>
      </trkpt>
      <trkpt lat="49.3187" lon="-0.62676">
        <ele>102.652888</ele>
        <time>2026-05-16T10:50:27.778Z</time>
      </trkpt>
      <trkpt lat="49.31863" lon="-0.62686">
        <ele>102.571498</ele>
        <time>2026-05-16T10:50:39.791Z</time>
      </trkpt>
      <trkpt lat="49.31857" lon="-0.62697">
        <ele>102.49461</ele>
        <time>2026-05-16T10:50:48.800Z</time>
      </trkpt>
      <trkpt lat="49.31851" lon="-0.62708">
        <ele>102.413547</ele>
        <time>2026-05-16T10:50:59.773Z</time>
      </trkpt>
      <trkpt lat="49.31846" lon="-0.62721">
        <ele>102.173649</ele>
        <time>2026-05-16T10:51:09.787Z</time>
      </trkpt>
      <trkpt lat="49.3184" lon="-0.62731">
        <ele>101.691552</ele>
        <time>2026-05-16T10:51:19.785Z</time>
      </trkpt>
      <trkpt lat="49.31832" lon="-0.62739">
        <ele>101.187118</ele>
        <time>2026-05-16T10:51:29.789Z</time>
      </trkpt>
      <trkpt lat="49.31823" lon="-0.62745">
        <ele>100.705483</ele>
        <time>2026-05-16T10:51:38.793Z</time>
      </trkpt>
      <trkpt lat="49.31815" lon="-0.62752">
        <ele>100.234738</ele>
        <time>2026-05-16T10:51:47.794Z</time>
      </trkpt>
      <trkpt lat="49.31807" lon="-0.6276">
        <ele>99.724936</ele>
        <time>2026-05-16T10:51:57.795Z</time>
      </trkpt>
      <trkpt lat="49.31799" lon="-0.62768">
        <ele>99.227505</ele>
        <time>2026-05-16T10:52:06.792Z</time>
      </trkpt>
      <trkpt lat="49.31791" lon="-0.62777">
        <ele>98.727723</ele>
        <time>2026-05-16T10:52:16.795Z</time>
      </trkpt>
      <trkpt lat="49.31783" lon="-0.62785">
        <ele>98.239007</ele>
        <time>2026-05-16T10:52:25.794Z</time>
      </trkpt>
      <trkpt lat="49.31775" lon="-0.6279">
        <ele>97.767004</ele>
        <time>2026-05-16T10:52:34.788Z</time>
      </trkpt>
      <trkpt lat="49.31766" lon="-0.62796">
        <ele>97.275398</ele>
        <time>2026-05-16T10:52:44.790Z</time>
      </trkpt>
      <trkpt lat="49.31758" lon="-0.62801">
        <ele>96.795099</ele>
        <time>2026-05-16T10:52:53.789Z</time>
      </trkpt>
      <trkpt lat="49.31749" lon="-0.62805">
        <ele>96.303473</ele>
        <time>2026-05-16T10:53:04.795Z</time>
      </trkpt>
      <trkpt lat="49.31739" lon="-0.62809">
        <ele>95.812894</ele>
        <time>2026-05-16T10:53:15.793Z</time>
      </trkpt>
      <trkpt lat="49.31731" lon="-0.62812">
        <ele>95.344585</ele>
        <time>2026-05-16T10:53:28.796Z</time>
      </trkpt>
      <trkpt lat="49.31722" lon="-0.62817">
        <ele>94.850849</ele>
        <time>2026-05-16T10:53:39.791Z</time>
      </trkpt>
      <trkpt lat="49.31713" lon="-0.62823">
        <ele>94.353701</ele>
        <time>2026-05-16T10:53:50.791Z</time>
      </trkpt>
      <trkpt lat="49.31697" lon="-0.62836">
        <ele>93.436999</ele>
        <time>2026-05-16T10:54:33.797Z</time>
      </trkpt>
      <trkpt lat="49.31689" lon="-0.62842">
        <ele>92.793082</ele>
        <time>2026-05-16T10:55:02.786Z</time>
      </trkpt>
      <trkpt lat="49.3168" lon="-0.62849">
        <ele>91.581759</ele>
        <time>2026-05-16T10:55:14.788Z</time>
      </trkpt>
      <trkpt lat="49.31673" lon="-0.62858">
        <ele>90.417968</ele>
        <time>2026-05-16T10:55:24.791Z</time>
      </trkpt>
      <trkpt lat="49.31664" lon="-0.62864">
        <ele>89.187815</ele>
        <time>2026-05-16T10:55:34.807Z</time>
      </trkpt>
      <trkpt lat="49.31656" lon="-0.6287">
        <ele>87.967843</ele>
        <time>2026-05-16T10:55:44.800Z</time>
      </trkpt>
      <trkpt lat="49.31647" lon="-0.62876">
        <ele>86.796406</ele>
        <time>2026-05-16T10:55:54.804Z</time>
      </trkpt>
      <trkpt lat="49.31639" lon="-0.62882">
        <ele>85.637732</ele>
        <time>2026-05-16T10:56:04.788Z</time>
      </trkpt>
      <trkpt lat="49.31631" lon="-0.62888">
        <ele>84.44441</ele>
        <time>2026-05-16T10:56:14.793Z</time>
      </trkpt>
      <trkpt lat="49.31622" lon="-0.62892">
        <ele>83.268392</ele>
        <time>2026-05-16T10:56:24.793Z</time>
      </trkpt>
      <trkpt lat="49.31613" lon="-0.62896">
        <ele>82.079993</ele>
        <time>2026-05-16T10:56:36.792Z</time>
      </trkpt>
      <trkpt lat="49.31604" lon="-0.62902">
        <ele>80.851809</ele>
        <time>2026-05-16T10:56:46.780Z</time>
      </trkpt>
      <trkpt lat="49.31596" lon="-0.62909">
        <ele>79.640519</ele>
        <time>2026-05-16T10:56:56.791Z</time>
      </trkpt>
      <trkpt lat="49.31586" lon="-0.62909">
        <ele>78.415465</ele>
        <time>2026-05-16T10:57:08.795Z</time>
      </trkpt>
      <trkpt lat="49.31581" lon="-0.62897">
        <ele>77.167709</ele>
        <time>2026-05-16T10:57:19.793Z</time>
      </trkpt>
      <trkpt lat="49.31577" lon="-0.62884">
        <ele>75.990793</ele>
        <time>2026-05-16T10:57:29.805Z</time>
      </trkpt>
      <trkpt lat="49.3157" lon="-0.62875">
        <ele>74.837133</ele>
        <time>2026-05-16T10:57:40.785Z</time>
      </trkpt>
      <trkpt lat="49.31561" lon="-0.6287">
        <ele>73.613414</ele>
        <time>2026-05-16T10:57:51.784Z</time>
      </trkpt>
      <trkpt lat="49.31552" lon="-0.62875">
        <ele>72.389774</ele>
        <time>2026-05-16T10:58:06.795Z</time>
      </trkpt>
      <trkpt lat="49.31543" lon="-0.62882">
        <ele>71.080078</ele>
        <time>2026-05-16T10:58:15.792Z</time>
      </trkpt>
      <trkpt lat="49.31534" lon="-0.62887">
        <ele>70.051172</ele>
        <time>2026-05-16T10:58:24.776Z</time>
      </trkpt>
      <trkpt lat="49.31526" lon="-0.62894">
        <ele>69.838955</ele>
        <time>2026-05-16T10:58:34.767Z</time>
      </trkpt>
      <trkpt lat="49.31517" lon="-0.62901">
        <ele>69.603681</ele>
        <time>2026-05-16T10:58:44.765Z</time>
      </trkpt>
      <trkpt lat="49.31508" lon="-0.62906">
        <ele>69.387816</ele>
        <time>2026-05-16T10:58:52.901Z</time>
      </trkpt>
      <trkpt lat="49.315" lon="-0.62911">
        <ele>69.179406</ele>
        <time>2026-05-16T10:59:00.773Z</time>
      </trkpt>
      <trkpt lat="49.3149" lon="-0.62916">
        <ele>68.952159</ele>
        <time>2026-05-16T10:59:09.780Z</time>
      </trkpt>
      <trkpt lat="49.31481" lon="-0.62921">
        <ele>68.72644</ele>
        <time>2026-05-16T10:59:18.791Z</time>
      </trkpt>
      <trkpt lat="49.31471" lon="-0.62921">
        <ele>68.499257</ele>
        <time>2026-05-16T10:59:27.772Z</time>
      </trkpt>
      <trkpt lat="49.31462" lon="-0.62918">
        <ele>68.272453</ele>
        <time>2026-05-16T10:59:36.793Z</time>
      </trkpt>
      <trkpt lat="49.31453" lon="-0.6291">
        <ele>68.037096</ele>
        <time>2026-05-16T10:59:46.792Z</time>
      </trkpt>
      <trkpt lat="49.31446" lon="-0.629">
        <ele>67.822901</ele>
        <time>2026-05-16T10:59:55.793Z</time>
      </trkpt>
      <trkpt lat="49.3144" lon="-0.6289">
        <ele>67.607905</ele>
        <time>2026-05-16T11:00:04.771Z</time>
      </trkpt>
      <trkpt lat="49.31433" lon="-0.6288">
        <ele>67.389266</ele>
        <time>2026-05-16T11:00:13.795Z</time>
      </trkpt>
      <trkpt lat="49.31427" lon="-0.6287">
        <ele>67.180123</ele>
        <time>2026-05-16T11:00:22.782Z</time>
      </trkpt>
      <trkpt lat="49.3142" lon="-0.62861">
        <ele>66.968428</ele>
        <time>2026-05-16T11:00:31.788Z</time>
      </trkpt>
      <trkpt lat="49.31413" lon="-0.62852">
        <ele>66.754952</ele>
        <time>2026-05-16T11:00:40.769Z</time>
      </trkpt>
      <trkpt lat="49.31405" lon="-0.62844">
        <ele>66.535078</ele>
        <time>2026-05-16T11:00:49.786Z</time>
      </trkpt>
      <trkpt lat="49.31402" lon="-0.6283">
        <ele>66.319583</ele>
        <time>2026-05-16T11:01:00.764Z</time>
      </trkpt>
      <trkpt lat="49.31402" lon="-0.62816">
        <ele>66.098934</ele>
        <time>2026-05-16T11:01:12.796Z</time>
      </trkpt>
      <trkpt lat="49.31398" lon="-0.62802">
        <ele>65.932795</ele>
        <time>2026-05-16T11:01:36.792Z</time>
      </trkpt>
      <trkpt lat="49.31402" lon="-0.62787">
        <ele>65.932795</ele>
        <time>2026-05-16T11:01:42.797Z</time>
      </trkpt>
      <trkpt lat="49.31401" lon="-0.62774">
        <ele>65.932795</ele>
        <time>2026-05-16T11:01:51.792Z</time>
      </trkpt>
      <trkpt lat="49.31406" lon="-0.62754">
        <ele>65.932795</ele>
        <time>2026-05-16T11:02:45.797Z</time>
      </trkpt>
      <trkpt lat="49.31415" lon="-0.62748">
        <ele>65.932795</ele>
        <time>2026-05-16T11:02:59.792Z</time>
      </trkpt>
      <trkpt lat="49.31422" lon="-0.62737">
        <ele>65.932795</ele>
        <time>2026-05-16T11:03:11.794Z</time>
      </trkpt>
      <trkpt lat="49.31428" lon="-0.62728">
        <ele>65.932795</ele>
        <time>2026-05-16T11:03:23.781Z</time>
      </trkpt>
      <trkpt lat="49.31433" lon="-0.62716">
        <ele>65.932795</ele>
        <time>2026-05-16T11:03:35.798Z</time>
      </trkpt>
      <trkpt lat="49.31433" lon="-0.62701">
        <ele>65.932795</ele>
        <time>2026-05-16T11:03:49.780Z</time>
      </trkpt>
      <trkpt lat="49.31429" lon="-0.62689">
        <ele>65.932795</ele>
        <time>2026-05-16T11:03:59.779Z</time>
      </trkpt>
      <trkpt lat="49.31423" lon="-0.62679">
        <ele>65.932795</ele>
        <time>2026-05-16T11:04:08.794Z</time>
      </trkpt>
      <trkpt lat="49.31416" lon="-0.62671">
        <ele>65.932795</ele>
        <time>2026-05-16T11:04:20.789Z</time>
      </trkpt>
      <trkpt lat="49.31408" lon="-0.62661">
        <ele>65.932795</ele>
        <time>2026-05-16T11:04:30.793Z</time>
      </trkpt>
      <trkpt lat="49.314" lon="-0.62652">
        <ele>65.932795</ele>
        <time>2026-05-16T11:04:41.789Z</time>
      </trkpt>
      <trkpt lat="49.31393" lon="-0.62643">
        <ele>65.932795</ele>
        <time>2026-05-16T11:04:51.793Z</time>
      </trkpt>
      <trkpt lat="49.31385" lon="-0.62634">
        <ele>65.932795</ele>
        <time>2026-05-16T11:05:00.771Z</time>
      </trkpt>
      <trkpt lat="49.31378" lon="-0.62625">
        <ele>65.932795</ele>
        <time>2026-05-16T11:05:09.787Z</time>
      </trkpt>
      <trkpt lat="49.31371" lon="-0.62616">
        <ele>65.932795</ele>
        <time>2026-05-16T11:05:18.787Z</time>
      </trkpt>
      <trkpt lat="49.31363" lon="-0.62607">
        <ele>65.932795</ele>
        <time>2026-05-16T11:05:28.792Z</time>
      </trkpt>
      <trkpt lat="49.31356" lon="-0.62596">
        <ele>65.932795</ele>
        <time>2026-05-16T11:05:38.790Z</time>
      </trkpt>
      <trkpt lat="49.31349" lon="-0.62586">
        <ele>65.932795</ele>
        <time>2026-05-16T11:05:47.795Z</time>
      </trkpt>
      <trkpt lat="49.31341" lon="-0.62577">
        <ele>65.932795</ele>
        <time>2026-05-16T11:05:57.791Z</time>
      </trkpt>
      <trkpt lat="49.31333" lon="-0.62569">
        <ele>65.932795</ele>
        <time>2026-05-16T11:06:08.796Z</time>
      </trkpt>
      <trkpt lat="49.31325" lon="-0.62561">
        <ele>65.932795</ele>
        <time>2026-05-16T11:06:18.792Z</time>
      </trkpt>
      <trkpt lat="49.3132" lon="-0.62548">
        <ele>65.932795</ele>
        <time>2026-05-16T11:06:29.784Z</time>
      </trkpt>
    </trkseg>
  </trk>
</gpx>